Time,TemperatureF,DewpointF,PressureIn,WindDirection,WindDirectionDegrees,WindSpeedMPH,WindSpeedGustMPH,Humidity,HourlyPrecipIn,Conditions,Clouds,dailyrainin,SoftwareType,DateUTC
2013-04-05 00:00:00,45.0,0.1,28.91,East,88,0.0,0.0,15,0.00,,OVC065,0.00,VWS V14.00,2013-04-05 04:00:00,
2013-04-05 00:05:00,45.0,0.1,28.91,East,88,0.0,0.0,15,0.00,,OVC065,0.00,VWS V14.00,2013-04-05 04:05:00,
2013-04-05 00:10:00,45.0,0.1,28.91,East,88,0.0,0.0,15,0.00,,OVC065,0.00,VWS V14.00,2013-04-05 04:10:00,
2013-04-05 00:15:00,45.1,0.3,28.91,East,88,0.0,0.0,15,0.00,,OVC065,0.00,VWS V14.00,2013-04-05 04:15:00,
2013-04-05 00:17:00,45.1,0.3,28.91,East,88,0.0,0.0,15,0.00,,OVC065,0.00,VWS V14.00,2013-04-05 04:17:00,
2013-04-05 00:20:00,45.0,0.1,28.91,East,88,0.0,0.0,15,0.00,,OVC065,0.00,VWS V14.00,2013-04-05 04:20:00,
2013-04-05 00:22:00,45.0,0.1,28.91,East,88,0.0,0.0,15,0.00,,OVC065,0.00,VWS V14.00,2013-04-05 04:22:00,
2013-04-05 00:25:00,45.0,0.1,28.91,East,88,0.0,0.0,15,0.00,,OVC065,0.00,VWS V14.00,2013-04-05 04:25:00,
2013-04-05 00:26:00,45.0,0.1,28.91,East,88,0.0,0.0,15,0.00,,OVC065,0.00,VWS V14.00,2013-04-05 04:26:00,
2013-04-05 00:27:00,44.8,0.0,28.91,East,88,0.0,0.0,15,0.00,,OVC065,0.00,VWS V14.00,2013-04-05 04:27:00,
2013-04-05 00:30:00,44.8,0.0,28.91,East,88,0.0,0.0,15,0.00,,OVC065,0.00,VWS V14.00,2013-04-05 04:30:00,
2013-04-05 00:32:00,44.8,0.0,28.91,East,88,0.0,0.0,15,0.00,,OVC065,0.00,VWS V14.00,2013-04-05 04:32:00,
2013-04-05 00:35:00,44.8,0.0,28.91,East,88,0.0,0.0,15,0.00,,OVC065,0.00,VWS V14.00,2013-04-05 04:35:00,
2013-04-05 00:37:00,44.8,0.0,28.91,East,88,0.0,0.0,15,0.00,,OVC065,0.00,VWS V14.00,2013-04-05 04:37:00,
2013-04-05 00:40:00,44.8,0.0,28.91,East,88,0.0,0.0,15,0.00,,OVC065,0.00,VWS V14.00,2013-04-05 04:40:00,
2013-04-05 00:42:00,45.0,0.1,28.91,East,88,0.0,0.0,15,0.00,,OVC065,0.00,VWS V14.00,2013-04-05 04:42:00,
2013-04-05 00:45:00,45.1,0.3,28.91,East,88,0.0,0.0,15,0.00,,OVC065,0.00,VWS V14.00,2013-04-05 04:45:00,
2013-04-05 00:46:00,45.1,0.3,28.91,East,88,0.0,0.0,15,0.00,,OVC065,0.00,VWS V14.00,2013-04-05 04:46:00,
2013-04-05 00:47:00,45.1,0.3,28.91,East,88,0.0,0.0,15,0.00,,OVC065,0.00,VWS V14.00,2013-04-05 04:47:00,
2013-04-05 00:48:00,45.1,0.3,28.91,East,88,0.0,0.0,15,0.00,,OVC065,0.00,VWS V14.00,2013-04-05 04:48:00,
2013-04-05 00:50:00,45.1,0.3,28.91,East,88,0.0,0.0,15,0.00,,OVC065,0.00,VWS V14.00,2013-04-05 04:50:00,
2013-04-05 00:51:00,45.1,0.3,28.91,East,88,0.0,0.0,15,0.00,,OVC065,0.00,VWS V14.00,2013-04-05 04:51:00,
2013-04-05 00:52:00,45.1,0.3,28.91,East,101,0.0,0.0,15,0.00,,OVC065,0.00,VWS V14.00,2013-04-05 04:52:00,
2013-04-05 00:53:00,45.1,0.3,28.91,East,101,0.0,0.0,15,0.00,,OVC065,0.00,VWS V14.00,2013-04-05 04:53:00,
2013-04-05 00:55:00,45.1,0.3,28.91,East,101,0.0,0.0,15,0.00,,OVC065,0.00,VWS V14.00,2013-04-05 04:55:00,
2013-04-05 00:56:00,45.1,0.3,28.91,East,101,0.0,0.0,15,0.00,,OVC065,0.00,VWS V14.00,2013-04-05 04:56:00,
2013-04-05 00:57:00,45.1,0.3,28.91,East,101,0.0,0.0,15,0.00,,OVC065,0.00,VWS V14.00,2013-04-05 04:57:00,
2013-04-05 00:58:00,45.1,0.3,28.91,East,101,0.0,0.0,15,0.00,,OVC060,0.00,VWS V14.00,2013-04-05 04:58:00,
2013-04-05 01:00:00,45.1,0.3,28.91,South,180,0.0,0.0,15,0.00,,OVC060,0.00,VWS V14.00,2013-04-05 05:00:00,
2013-04-05 01:01:00,45.1,0.3,28.91,South,177,0.0,0.0,15,0.00,,OVC060,0.00,VWS V14.00,2013-04-05 05:01:00,
2013-04-05 01:03:00,45.3,0.4,28.91,South,176,0.0,0.0,15,0.00,,OVC060,0.00,VWS V14.00,2013-04-05 05:03:00,
2013-04-05 01:05:00,45.3,0.4,28.91,South,175,0.0,0.0,15,0.00,,OVC060,0.00,VWS V14.00,2013-04-05 05:05:00,
2013-04-05 01:07:00,45.3,0.4,28.91,South,176,0.0,0.0,15,0.00,,OVC060,0.00,VWS V14.00,2013-04-05 05:07:00,
2013-04-05 01:08:00,45.3,0.4,28.91,South,176,0.0,0.0,15,0.00,,OVC060,0.00,VWS V14.00,2013-04-05 05:08:00,
2013-04-05 01:10:00,45.3,0.4,28.91,South,176,0.0,0.0,15,0.00,,OVC060,0.00,VWS V14.00,2013-04-05 05:10:00,
2013-04-05 01:12:00,45.3,0.4,28.91,South,170,0.0,0.0,15,0.00,,OVC060,0.00,VWS V14.00,2013-04-05 05:12:00,
2013-04-05 01:13:00,45.3,0.4,28.91,South,170,0.0,0.0,15,0.00,,OVC060,0.00,VWS V14.00,2013-04-05 05:13:00,
2013-04-05 01:16:00,45.3,0.4,28.91,SSE,152,0.0,0.0,15,0.00,,OVC060,0.00,VWS V14.00,2013-04-05 05:16:00,
2013-04-05 01:17:00,45.3,0.4,28.91,South,186,0.0,0.0,15,0.00,,OVC060,0.00,VWS V14.00,2013-04-05 05:17:00,
2013-04-05 01:18:00,45.3,0.4,28.91,South,186,0.0,0.0,15,0.00,,OVC060,0.00,VWS V14.00,2013-04-05 05:18:00,
2013-04-05 01:21:00,45.3,0.4,28.91,South,186,0.0,0.0,15,0.00,,OVC060,0.00,VWS V14.00,2013-04-05 05:21:00,
2013-04-05 01:22:00,45.3,0.4,28.91,South,186,0.0,0.0,15,0.00,,OVC060,0.00,VWS V14.00,2013-04-05 05:22:00,
2013-04-05 01:23:00,45.3,0.4,28.91,South,186,0.0,0.0,15,0.00,,OVC060,0.00,VWS V14.00,2013-04-05 05:23:00,
2013-04-05 01:26:00,45.3,0.4,28.91,SE,142,0.0,0.0,15,0.00,,OVC060,0.00,VWS V14.00,2013-04-05 05:26:00,
2013-04-05 01:27:00,45.3,0.4,28.91,SE,142,0.0,0.0,15,0.00,,OVC060,0.00,VWS V14.00,2013-04-05 05:27:00,
2013-04-05 01:28:00,45.3,0.4,28.91,SE,142,0.0,0.0,15,0.00,,OVC060,0.00,VWS V14.00,2013-04-05 05:28:00,
2013-04-05 01:31:00,45.3,0.4,28.91,SE,141,0.0,0.0,15,0.00,,OVC060,0.00,VWS V14.00,2013-04-05 05:31:00,
2013-04-05 01:32:00,45.3,0.4,28.91,SE,141,0.0,0.0,15,0.00,,OVC060,0.00,VWS V14.00,2013-04-05 05:32:00,
2013-04-05 01:33:00,45.3,0.4,28.91,SE,141,0.0,0.0,15,0.00,,OVC060,0.00,VWS V14.00,2013-04-05 05:33:00,
2013-04-05 01:36:00,45.3,0.4,28.91,SE,141,0.0,0.0,15,0.00,,OVC060,0.00,VWS V14.00,2013-04-05 05:36:00,
2013-04-05 01:38:00,45.3,0.4,28.91,SE,140,0.0,0.0,15,0.00,,OVC060,0.00,VWS V14.00,2013-04-05 05:38:00,
2013-04-05 01:39:00,45.3,0.4,28.91,SE,140,0.0,0.0,15,0.00,,OVC060,0.00,VWS V14.00,2013-04-05 05:39:00,
2013-04-05 01:41:00,45.1,0.3,28.91,SE,133,0.0,0.0,15,0.00,,OVC060,0.00,VWS V14.00,2013-04-05 05:41:00,
2013-04-05 01:43:00,45.1,0.3,28.91,SE,132,0.0,0.0,15,0.00,,OVC060,0.00,VWS V14.00,2013-04-05 05:43:00,
2013-04-05 01:44:00,45.1,0.3,28.91,SE,133,0.0,0.0,15,0.00,,OVC060,0.00,VWS V14.00,2013-04-05 05:44:00,
2013-04-05 01:47:00,45.0,0.1,28.91,SE,133,0.0,0.0,15,0.00,,OVC060,0.00,VWS V14.00,2013-04-05 05:47:00,
2013-04-05 01:48:00,45.0,0.1,28.91,SE,133,0.0,0.0,15,0.00,,OVC060,0.00,VWS V14.00,2013-04-05 05:48:00,
2013-04-05 01:49:00,45.0,0.1,28.91,SE,133,0.0,0.0,15,0.00,,OVC060,0.00,VWS V14.00,2013-04-05 05:49:00,
2013-04-05 01:52:00,44.8,0.0,28.91,SE,133,0.0,0.0,15,0.00,,OVC060,0.00,VWS V14.00,2013-04-05 05:52:00,
2013-04-05 01:53:00,44.8,0.0,28.91,SE,132,0.0,0.0,15,0.00,,OVC060,0.00,VWS V14.00,2013-04-05 05:53:00,
2013-04-05 01:54:00,44.6,-0.2,28.91,SE,132,0.0,0.0,15,0.00,,OVC060,0.00,VWS V14.00,2013-04-05 05:54:00,
2013-04-05 01:58:00,44.6,-0.2,28.91,SE,132,0.0,0.0,15,0.00,,OVC060,0.00,VWS V14.00,2013-04-05 05:58:00,
2013-04-05 01:59:00,44.4,-0.3,28.91,SE,132,0.0,0.0,15,0.00,,OVC060,0.00,VWS V14.00,2013-04-05 05:59:00,
2013-04-05 02:03:00,44.2,-0.5,28.91,South,175,0.0,0.0,15,0.00,,BKN075,0.00,VWS V14.00,2013-04-05 06:03:00,
2013-04-05 02:04:00,44.1,-0.6,28.91,South,174,0.0,0.0,15,0.00,,BKN075,0.00,VWS V14.00,2013-04-05 06:04:00,
2013-04-05 02:08:00,44.1,-0.6,28.91,South,175,0.0,0.0,15,0.00,,BKN075,0.00,VWS V14.00,2013-04-05 06:08:00,
2013-04-05 02:09:00,43.9,-0.8,28.91,South,174,0.0,0.0,15,0.00,,BKN075,0.00,VWS V14.00,2013-04-05 06:09:00,
2013-04-05 02:10:00,43.9,-0.8,28.91,South,174,0.0,0.0,15,0.00,,BKN075,0.00,VWS V14.00,2013-04-05 06:10:00,
2013-04-05 02:13:00,43.7,-0.9,28.91,South,175,0.0,0.0,15,0.00,,BKN075,0.00,VWS V14.00,2013-04-05 06:13:00,
2013-04-05 02:14:00,43.5,-1.1,28.91,South,175,0.0,0.0,15,0.00,,BKN075,0.00,VWS V14.00,2013-04-05 06:14:00,
2013-04-05 02:15:00,43.5,-1.1,28.91,South,175,0.0,0.0,15,0.00,,BKN075,0.00,VWS V14.00,2013-04-05 06:15:00,
2013-04-05 02:18:00,43.3,-1.2,28.91,South,174,0.0,0.0,15,0.00,,BKN075,0.00,VWS V14.00,2013-04-05 06:18:00,
2013-04-05 02:19:00,43.3,-1.2,28.91,South,175,0.0,0.0,15,0.00,,BKN075,0.00,VWS V14.00,2013-04-05 06:19:00,
2013-04-05 02:20:00,43.2,-1.4,28.91,South,175,0.0,0.0,15,0.00,,BKN075,0.00,VWS V14.00,2013-04-05 06:20:00,
2013-04-05 02:23:00,43.0,-1.5,28.91,South,174,0.0,0.0,15,0.00,,BKN075,0.00,VWS V14.00,2013-04-05 06:23:00,
2013-04-05 02:24:00,42.8,-1.6,28.91,South,174,0.0,0.0,15,0.00,,BKN075,0.00,VWS V14.00,2013-04-05 06:24:00,
2013-04-05 02:25:00,42.8,-1.6,28.91,South,174,0.0,0.0,15,0.00,,BKN075,0.00,VWS V14.00,2013-04-05 06:25:00,
2013-04-05 02:28:00,42.6,-0.4,28.91,South,174,0.0,0.0,16,0.00,,BKN075,0.00,VWS V14.00,2013-04-05 06:28:00,
2013-04-05 02:29:00,42.4,-0.6,28.91,South,174,0.0,0.0,16,0.00,,BKN075,0.00,VWS V14.00,2013-04-05 06:29:00,
2013-04-05 02:30:00,42.4,-0.6,28.91,South,174,0.0,0.0,16,0.00,,BKN075,0.00,VWS V14.00,2013-04-05 06:30:00,
2013-04-05 02:33:00,42.3,-0.7,28.91,South,175,0.0,0.0,16,0.00,,BKN075,0.00,VWS V14.00,2013-04-05 06:33:00,
2013-04-05 02:34:00,42.3,-0.7,28.91,South,175,0.0,0.0,16,0.00,,BKN075,0.00,VWS V14.00,2013-04-05 06:34:00,
2013-04-05 02:35:00,42.3,-0.7,28.91,South,175,0.0,0.0,16,0.00,,BKN075,0.00,VWS V14.00,2013-04-05 06:35:00,
2013-04-05 02:38:00,42.1,-0.9,28.91,South,174,0.0,0.0,16,0.00,,BKN075,0.00,VWS V14.00,2013-04-05 06:38:00,
2013-04-05 02:40:00,41.9,-1.0,28.91,South,175,0.0,0.0,16,0.00,,BKN075,0.00,VWS V14.00,2013-04-05 06:40:00,
2013-04-05 02:43:00,41.9,-1.0,28.91,South,175,0.0,0.0,16,0.00,,BKN075,0.00,VWS V14.00,2013-04-05 06:43:00,
2013-04-05 02:45:00,41.9,-1.0,28.91,South,174,0.0,0.0,16,0.00,,BKN075,0.00,VWS V14.00,2013-04-05 06:45:00,
2013-04-05 02:48:00,41.9,-1.0,28.91,South,172,0.0,0.0,16,0.00,,BKN075,0.00,VWS V14.00,2013-04-05 06:48:00,
2013-04-05 02:50:00,41.9,-1.0,28.91,South,172,0.0,0.0,16,0.00,,BKN075,0.00,VWS V14.00,2013-04-05 06:50:00,
2013-04-05 02:54:00,42.1,-0.9,28.91,South,172,0.0,0.0,16,0.00,,BKN075,0.00,VWS V14.00,2013-04-05 06:54:00,
2013-04-05 02:55:00,42.1,-0.9,28.91,South,172,0.0,0.0,16,0.00,,BKN075,0.00,VWS V14.00,2013-04-05 06:55:00,
2013-04-05 02:56:00,42.3,-0.7,28.91,SSW,207,3.1,3.1,16,0.00,,BKN075,0.00,VWS V14.00,2013-04-05 06:56:00,
2013-04-05 03:00:00,42.4,-0.6,28.91,WSW,258,0.0,0.0,16,0.00,,BKN060,0.00,VWS V14.00,2013-04-05 07:00:00,
2013-04-05 03:01:00,42.4,-0.6,28.91,South,179,0.0,0.0,16,0.00,,BKN060,0.00,VWS V14.00,2013-04-05 07:01:00,
2013-04-05 03:04:00,42.4,-0.6,28.91,South,181,3.6,3.6,16,0.00,,BKN060,0.00,VWS V14.00,2013-04-05 07:04:00,
2013-04-05 03:05:00,42.4,-0.6,28.91,South,181,2.2,2.2,16,0.00,,BKN060,0.00,VWS V14.00,2013-04-05 07:05:00,
2013-04-05 03:06:00,42.4,-0.6,28.91,South,181,0.0,0.0,16,0.00,,BKN060,0.00,VWS V14.00,2013-04-05 07:06:00,
2013-04-05 03:09:00,42.3,-0.7,28.91,South,191,0.0,0.0,16,0.00,,BKN060,0.00,VWS V14.00,2013-04-05 07:09:00,
2013-04-05 03:10:00,42.3,-0.7,28.91,South,191,0.0,0.0,16,0.00,,BKN060,0.00,VWS V14.00,2013-04-05 07:10:00,
2013-04-05 03:11:00,42.3,-0.7,28.91,SSW,193,0.0,0.0,16,0.00,,BKN060,0.00,VWS V14.00,2013-04-05 07:11:00,
2013-04-05 03:15:00,42.1,1.6,28.91,South,178,0.0,0.0,18,0.00,,BKN060,0.00,VWS V14.00,2013-04-05 07:15:00,
2013-04-05 03:16:00,42.1,1.6,28.91,SE,145,0.0,0.0,18,0.00,,BKN060,0.00,VWS V14.00,2013-04-05 07:16:00,
2013-04-05 03:20:00,41.7,4.7,28.91,South,172,0.0,0.0,21,0.00,,BKN060,0.00,VWS V14.00,2013-04-05 07:20:00,
2013-04-05 03:21:00,41.7,6.7,28.91,South,173,0.0,0.0,23,0.00,,BKN060,0.00,VWS V14.00,2013-04-05 07:21:00,
2013-04-05 03:25:00,41.5,9.2,28.91,WSW,242,0.0,0.0,26,0.00,,BKN060,0.00,VWS V14.00,2013-04-05 07:25:00,
2013-04-05 03:26:00,41.4,10.7,28.91,SSW,199,2.7,2.7,28,0.00,,BKN060,0.00,VWS V14.00,2013-04-05 07:26:00,
2013-04-05 03:30:00,41.2,11.4,28.91,SSW,213,0.0,0.0,29,0.00,,BKN060,0.00,VWS V14.00,2013-04-05 07:30:00,
2013-04-05 03:31:00,41.2,11.4,28.91,SSW,213,0.0,0.0,29,0.00,,BKN060,0.00,VWS V14.00,2013-04-05 07:31:00,
2013-04-05 03:35:00,40.6,10.9,28.91,South,177,0.0,0.0,29,0.00,,BKN060,0.00,VWS V14.00,2013-04-05 07:35:00,
2013-04-05 03:36:00,40.6,10.9,28.91,South,185,0.0,0.0,29,0.00,,BKN060,0.00,VWS V14.00,2013-04-05 07:36:00,
2013-04-05 03:37:00,40.6,10.9,28.91,South,181,0.0,0.0,29,0.00,,BKN060,0.00,VWS V14.00,2013-04-05 07:37:00,
2013-04-05 03:38:00,40.5,10.7,28.91,South,189,2.7,2.7,29,0.00,,BKN060,0.00,VWS V14.00,2013-04-05 07:38:00,
2013-04-05 03:40:00,40.5,11.5,28.91,SW,227,2.7,2.7,30,0.00,,BKN060,0.00,VWS V14.00,2013-04-05 07:40:00,
2013-04-05 03:41:00,40.5,11.5,28.91,South,175,3.1,3.1,30,0.00,,BKN060,0.00,VWS V14.00,2013-04-05 07:41:00,
2013-04-05 03:42:00,40.5,11.5,28.91,South,176,0.0,0.0,30,0.00,,BKN060,0.00,VWS V14.00,2013-04-05 07:42:00,
2013-04-05 03:44:00,40.3,11.3,28.91,SSW,209,0.0,0.0,30,0.00,,BKN060,0.00,VWS V14.00,2013-04-05 07:44:00,
2013-04-05 03:45:00,40.3,11.3,28.91,South,176,0.0,0.0,30,0.00,,BKN060,0.00,VWS V14.00,2013-04-05 07:45:00,
2013-04-05 03:46:00,40.1,11.9,28.91,South,177,0.0,0.0,31,0.00,,BKN060,0.00,VWS V14.00,2013-04-05 07:46:00,
2013-04-05 03:47:00,40.1,11.9,28.91,SSW,194,0.0,0.0,31,0.00,,BKN060,0.00,VWS V14.00,2013-04-05 07:47:00,
2013-04-05 03:49:00,39.9,11.8,28.91,SW,232,0.0,0.0,31,0.00,,BKN060,0.00,VWS V14.00,2013-04-05 07:49:00,
2013-04-05 03:50:00,39.7,11.6,28.91,South,175,0.0,0.0,31,0.00,,BKN060,0.00,VWS V14.00,2013-04-05 07:50:00,
2013-04-05 03:52:00,39.7,11.6,28.91,South,190,0.0,0.0,31,0.00,,BKN060,0.00,VWS V14.00,2013-04-05 07:52:00,
2013-04-05 03:54:00,39.6,12.1,28.91,South,179,0.0,0.0,32,0.00,,BKN060,0.00,VWS V14.00,2013-04-05 07:54:00,
2013-04-05 03:55:00,39.4,12.0,28.91,South,179,0.0,0.0,32,0.00,,BKN060,0.00,VWS V14.00,2013-04-05 07:55:00,
2013-04-05 03:57:00,39.4,12.0,28.91,South,175,3.6,3.6,32,0.00,,BKN060,0.00,VWS V14.00,2013-04-05 07:57:00,
2013-04-05 03:59:00,39.2,12.5,28.91,SW,233,0.0,0.0,33,0.00,,FEW060,0.00,VWS V14.00,2013-04-05 07:59:00,
2013-04-05 04:00:00,39.2,12.5,28.91,South,184,2.7,2.7,33,0.00,,FEW060,0.00,VWS V14.00,2013-04-05 08:00:00,
2013-04-05 04:02:00,39.2,12.5,28.91,South,184,0.0,0.0,33,0.00,,FEW060,0.00,VWS V14.00,2013-04-05 08:02:00,
2013-04-05 04:04:00,39.0,13.0,28.91,South,184,0.0,0.0,34,0.00,,FEW060,0.00,VWS V14.00,2013-04-05 08:04:00,
2013-04-05 04:07:00,39.0,13.7,28.91,South,183,3.6,3.6,35,0.00,,FEW060,0.00,VWS V14.00,2013-04-05 08:07:00,
2013-04-05 04:08:00,39.0,13.7,28.91,SSW,211,3.6,3.6,35,0.00,,FEW060,0.00,VWS V14.00,2013-04-05 08:08:00,
2013-04-05 04:10:00,38.8,13.5,28.91,South,177,0.0,0.0,35,0.00,,FEW060,0.00,VWS V14.00,2013-04-05 08:10:00,
2013-04-05 04:12:00,38.8,14.2,28.91,SSE,164,0.0,0.0,36,0.00,,FEW060,0.00,VWS V14.00,2013-04-05 08:12:00,
2013-04-05 04:13:00,38.8,14.2,28.91,SSE,163,0.0,0.0,36,0.00,,FEW060,0.00,VWS V14.00,2013-04-05 08:13:00,
2013-04-05 04:15:00,38.8,14.2,28.91,South,189,3.1,3.1,36,0.00,,FEW060,0.00,VWS V14.00,2013-04-05 08:15:00,
2013-04-05 04:17:00,38.7,14.0,28.91,WSW,238,0.0,0.0,36,0.00,,FEW060,0.00,VWS V14.00,2013-04-05 08:17:00,
2013-04-05 04:18:00,38.7,14.0,28.91,South,191,3.6,3.6,36,0.00,,FEW060,0.00,VWS V14.00,2013-04-05 08:18:00,
2013-04-05 04:21:00,38.7,14.6,28.91,South,190,3.6,3.6,37,0.00,,FEW060,0.00,VWS V14.00,2013-04-05 08:21:00,
2013-04-05 04:22:00,38.7,15.3,28.91,SSW,195,2.7,2.7,38,0.00,,FEW060,0.00,VWS V14.00,2013-04-05 08:22:00,
2013-04-05 04:23:00,38.7,15.3,28.91,SSW,193,3.1,3.1,38,0.00,,FEW060,0.00,VWS V14.00,2013-04-05 08:23:00,
2013-04-05 04:24:00,38.7,15.9,28.91,South,175,3.6,3.6,39,0.00,,FEW060,0.00,VWS V14.00,2013-04-05 08:24:00,
2013-04-05 04:27:00,38.7,15.9,28.91,SSW,205,0.0,0.0,39,0.00,,FEW060,0.00,VWS V14.00,2013-04-05 08:27:00,
2013-04-05 04:28:00,38.7,15.9,28.91,SSW,205,0.0,0.0,39,0.00,,FEW060,0.00,VWS V14.00,2013-04-05 08:28:00,
2013-04-05 04:29:00,38.5,15.7,28.91,South,181,0.0,0.0,39,0.00,,FEW060,0.00,VWS V14.00,2013-04-05 08:29:00,
2013-04-05 04:32:00,38.5,15.7,28.91,SSE,156,2.7,2.7,39,0.00,,FEW060,0.00,VWS V14.00,2013-04-05 08:32:00,
2013-04-05 04:33:00,38.5,15.7,28.91,SW,218,2.2,2.2,39,0.00,,FEW060,0.00,VWS V14.00,2013-04-05 08:33:00,
2013-04-05 04:34:00,38.5,15.7,28.91,South,180,0.0,0.0,39,0.00,,FEW060,0.00,VWS V14.00,2013-04-05 08:34:00,
2013-04-05 04:37:00,38.3,15.5,28.91,SSW,197,0.0,0.0,39,0.00,,FEW060,0.00,VWS V14.00,2013-04-05 08:37:00,
2013-04-05 04:38:00,38.3,15.5,28.91,South,187,0.0,0.0,39,0.00,,FEW060,0.00,VWS V14.00,2013-04-05 08:38:00,
2013-04-05 04:39:00,38.3,15.5,28.91,SSE,157,0.0,0.0,39,0.00,,FEW060,0.00,VWS V14.00,2013-04-05 08:39:00,
2013-04-05 04:42:00,38.1,15.4,28.91,South,188,2.7,2.7,39,0.00,,FEW060,0.00,VWS V14.00,2013-04-05 08:42:00,
2013-04-05 04:43:00,38.1,15.4,28.91,SSW,194,2.7,2.7,39,0.00,,FEW060,0.00,VWS V14.00,2013-04-05 08:43:00,
2013-04-05 04:45:00,38.1,15.4,28.91,South,178,0.0,0.0,39,0.00,,FEW060,0.00,VWS V14.00,2013-04-05 08:45:00,
2013-04-05 04:47:00,38.1,15.9,28.91,South,185,0.0,0.0,40,0.00,,FEW060,0.00,VWS V14.00,2013-04-05 08:47:00,
2013-04-05 04:48:00,38.1,15.9,28.91,South,179,0.0,0.0,40,0.00,,FEW060,0.00,VWS V14.00,2013-04-05 08:48:00,
2013-04-05 04:50:00,37.9,15.8,28.91,South,179,0.0,0.0,40,0.00,,FEW060,0.00,VWS V14.00,2013-04-05 08:50:00,
2013-04-05 04:52:00,37.9,15.8,28.91,South,180,0.0,0.0,40,0.00,,FEW060,0.00,VWS V14.00,2013-04-05 08:52:00,
2013-04-05 04:53:00,37.9,15.8,28.91,South,180,0.0,0.0,40,0.00,,FEW060,0.00,VWS V14.00,2013-04-05 08:53:00,
2013-04-05 04:54:00,37.8,15.6,28.91,South,179,0.0,0.0,40,0.00,,FEW060,0.00,VWS V14.00,2013-04-05 08:54:00,
2013-04-05 04:55:00,37.8,15.6,28.91,South,179,0.0,0.0,40,0.00,,FEW060,0.00,VWS V14.00,2013-04-05 08:55:00,
2013-04-05 04:58:00,37.6,15.5,28.91,South,183,0.0,0.0,40,0.00,,FEW060,0.00,VWS V14.00,2013-04-05 08:58:00,
2013-04-05 04:59:00,37.6,15.5,28.91,South,184,0.0,0.0,40,0.00,,FEW060,0.00,VWS V14.00,2013-04-05 08:59:00,
2013-04-05 05:00:00,37.6,15.5,28.91,South,184,0.0,0.0,40,0.00,,FEW060,0.00,VWS V14.00,2013-04-05 09:00:00,
2013-04-05 05:03:00,37.4,15.3,28.91,South,182,0.0,0.0,40,0.00,,CLR,0.00,VWS V14.00,2013-04-05 09:03:00,
2013-04-05 05:04:00,37.4,15.3,28.91,SSW,199,0.0,0.0,40,0.00,,CLR,0.00,VWS V14.00,2013-04-05 09:04:00,
2013-04-05 05:05:00,37.4,15.3,28.91,SSW,197,0.0,0.0,40,0.00,,CLR,0.00,VWS V14.00,2013-04-05 09:05:00,
2013-04-05 05:08:00,37.4,15.3,28.91,South,177,2.2,2.2,40,0.00,,CLR,0.00,VWS V14.00,2013-04-05 09:08:00,
2013-04-05 05:09:00,37.4,15.3,28.91,South,188,2.7,2.7,40,0.00,,CLR,0.00,VWS V14.00,2013-04-05 09:09:00,
2013-04-05 05:11:00,37.2,15.7,28.91,South,182,2.2,2.2,41,0.00,,CLR,0.00,VWS V14.00,2013-04-05 09:11:00,
2013-04-05 05:13:00,37.2,15.7,28.91,SSE,167,0.0,0.0,41,0.00,,CLR,0.00,VWS V14.00,2013-04-05 09:13:00,
2013-04-05 05:15:00,37.2,15.7,28.91,South,177,0.0,0.0,41,0.00,,CLR,0.00,VWS V14.00,2013-04-05 09:15:00,
2013-04-05 05:17:00,37.0,15.5,28.91,South,170,0.0,0.0,41,0.00,,CLR,0.00,VWS V14.00,2013-04-05 09:17:00,
2013-04-05 05:18:00,37.0,15.5,28.91,South,170,0.0,0.0,41,0.00,,CLR,0.00,VWS V14.00,2013-04-05 09:18:00,
2013-04-05 05:19:00,37.0,15.5,28.91,South,170,0.0,0.0,41,0.00,,CLR,0.00,VWS V14.00,2013-04-05 09:19:00,
2013-04-05 05:20:00,37.0,15.5,28.91,South,177,0.0,0.0,41,0.00,,CLR,0.00,VWS V14.00,2013-04-05 09:20:00,
2013-04-05 05:22:00,36.9,15.4,28.91,South,177,0.0,0.0,41,0.00,,CLR,0.00,VWS V14.00,2013-04-05 09:22:00,
2013-04-05 05:23:00,36.9,15.4,28.91,South,184,0.0,0.0,41,0.00,,CLR,0.00,VWS V14.00,2013-04-05 09:23:00,
2013-04-05 05:24:00,36.9,15.4,28.91,South,185,0.0,0.0,41,0.00,,CLR,0.00,VWS V14.00,2013-04-05 09:24:00,
2013-04-05 05:25:00,36.9,15.4,28.91,South,185,0.0,0.0,41,0.00,,CLR,0.00,VWS V14.00,2013-04-05 09:25:00,
2013-04-05 05:27:00,36.9,15.4,28.91,SSE,168,0.0,0.0,41,0.00,,CLR,0.00,VWS V14.00,2013-04-05 09:27:00,
2013-04-05 05:29:00,36.9,15.4,28.91,South,184,0.0,0.0,41,0.00,,CLR,0.00,VWS V14.00,2013-04-05 09:29:00,
2013-04-05 05:30:00,36.9,15.4,28.91,South,190,2.7,2.7,41,0.00,,CLR,0.00,VWS V14.00,2013-04-05 09:30:00,
2013-04-05 05:32:00,36.9,15.9,28.91,SW,236,0.0,0.0,42,0.00,,CLR,0.00,VWS V14.00,2013-04-05 09:32:00,
2013-04-05 05:34:00,36.9,15.9,28.91,SSE,160,3.6,3.6,42,0.00,,CLR,0.00,VWS V14.00,2013-04-05 09:34:00,
2013-04-05 05:35:00,36.9,15.9,28.91,SSW,197,2.7,2.7,42,0.00,,CLR,0.00,VWS V14.00,2013-04-05 09:35:00,
2013-04-05 05:37:00,36.9,15.9,28.91,South,175,2.2,2.2,42,0.00,,CLR,0.00,VWS V14.00,2013-04-05 09:37:00,
2013-04-05 05:39:00,36.9,15.9,28.91,SSE,165,0.0,0.0,42,0.00,,CLR,0.00,VWS V14.00,2013-04-05 09:39:00,
2013-04-05 05:40:00,36.9,15.9,28.91,SSE,165,0.0,0.0,42,0.00,,CLR,0.00,VWS V14.00,2013-04-05 09:40:00,
2013-04-05 05:43:00,36.9,16.5,28.91,South,183,4.0,4.0,43,0.00,,CLR,0.00,VWS V14.00,2013-04-05 09:43:00,
2013-04-05 05:44:00,36.9,16.5,28.91,South,187,0.0,0.0,43,0.00,,CLR,0.00,VWS V14.00,2013-04-05 09:44:00,
2013-04-05 05:45:00,36.9,16.5,28.91,South,188,0.0,0.0,43,0.00,,CLR,0.00,VWS V14.00,2013-04-05 09:45:00,
2013-04-05 05:48:00,36.9,16.5,28.91,South,180,0.0,0.0,43,0.00,,CLR,0.00,VWS V14.00,2013-04-05 09:48:00,
2013-04-05 05:49:00,36.9,16.5,28.91,SSW,196,0.0,0.0,43,0.00,,CLR,0.00,VWS V14.00,2013-04-05 09:49:00,
2013-04-05 05:50:00,36.9,16.5,28.91,West,265,0.0,0.0,43,0.00,,CLR,0.00,VWS V14.00,2013-04-05 09:50:00,
2013-04-05 05:53:00,36.7,16.3,28.91,SSE,168,0.0,0.0,43,0.00,,BKN016,0.00,VWS V14.00,2013-04-05 09:53:00,
2013-04-05 05:55:00,36.7,16.3,28.91,SSW,197,2.7,2.7,43,0.00,,BKN016,0.00,VWS V14.00,2013-04-05 09:55:00,
2013-04-05 05:58:00,36.5,16.1,28.91,South,173,3.1,3.1,43,0.00,,BKN016,0.00,VWS V14.00,2013-04-05 09:58:00,
2013-04-05 06:00:00,36.3,16.0,28.91,South,190,0.0,0.0,43,0.00,,BKN016,0.00,VWS V14.00,2013-04-05 10:00:00,
2013-04-05 06:01:00,36.3,16.0,28.91,South,189,0.0,0.0,43,0.00,,BKN016,0.00,VWS V14.00,2013-04-05 10:01:00,
2013-04-05 06:03:00,36.3,16.0,28.91,South,169,0.0,0.0,43,0.00,,BKN016,0.00,VWS V14.00,2013-04-05 10:03:00,
2013-04-05 06:05:00,36.1,15.8,28.91,South,169,0.0,0.0,43,0.00,,BKN016,0.00,VWS V14.00,2013-04-05 10:05:00,
2013-04-05 06:06:00,36.1,15.8,28.91,South,169,0.0,0.0,43,0.00,,BKN016,0.00,VWS V14.00,2013-04-05 10:06:00,
2013-04-05 06:08:00,36.0,15.6,28.91,SSW,194,0.0,0.0,43,0.00,,SCT016,0.00,VWS V14.00,2013-04-05 10:08:00,
2013-04-05 06:10:00,35.8,15.5,28.91,SSW,194,0.0,0.0,43,0.00,,SCT016,0.00,VWS V14.00,2013-04-05 10:10:00,
2013-04-05 06:11:00,35.8,15.5,28.91,SSW,194,0.0,0.0,43,0.00,,SCT016,0.00,VWS V14.00,2013-04-05 10:11:00,
2013-04-05 06:13:00,35.6,15.3,28.91,SSW,194,0.0,0.0,43,0.00,,SCT016,0.00,VWS V14.00,2013-04-05 10:13:00,
2013-04-05 06:15:00,35.6,15.3,28.91,South,191,0.0,0.0,43,0.00,,SCT016,0.00,VWS V14.00,2013-04-05 10:15:00,
2013-04-05 06:16:00,35.4,15.2,28.91,SE,134,0.0,0.0,43,0.00,,SCT016,0.00,VWS V14.00,2013-04-05 10:16:00,
2013-04-05 06:17:00,35.4,15.2,28.91,SE,131,0.0,0.0,43,0.00,,SCT016,0.00,VWS V14.00,2013-04-05 10:17:00,
2013-04-05 06:18:00,35.4,15.2,28.91,SW,216,0.0,0.0,43,0.00,,SCT016,0.00,VWS V14.00,2013-04-05 10:18:00,
2013-04-05 06:20:00,35.2,15.0,28.91,SW,216,0.0,0.0,43,0.00,,SCT016,0.00,VWS V14.00,2013-04-05 10:20:00,
2013-04-05 06:22:00,35.2,15.0,28.91,South,189,0.0,0.0,43,0.00,,SCT016,0.00,VWS V14.00,2013-04-05 10:22:00,
2013-04-05 06:23:00,35.1,14.8,28.91,South,187,0.0,0.0,43,0.00,,SCT016,0.00,VWS V14.00,2013-04-05 10:23:00,
2013-04-05 06:25:00,35.1,14.8,28.91,South,187,0.0,0.0,43,0.00,,SCT016,0.00,VWS V14.00,2013-04-05 10:25:00,
2013-04-05 06:27:00,34.9,14.7,28.91,South,180,0.0,0.0,43,0.00,,SCT016,0.00,VWS V14.00,2013-04-05 10:27:00,
2013-04-05 06:28:00,34.9,14.7,28.91,SW,233,0.0,0.0,43,0.00,,SCT016,0.00,VWS V14.00,2013-04-05 10:28:00,
2013-04-05 06:31:00,34.9,14.7,28.91,South,176,0.0,0.0,43,0.00,,SCT016,0.00,VWS V14.00,2013-04-05 10:31:00,
2013-04-05 06:32:00,34.7,14.5,28.91,SSW,193,0.0,0.0,43,0.00,,SCT016,0.00,VWS V14.00,2013-04-05 10:32:00,
2013-04-05 06:33:00,34.7,14.5,28.91,SSW,202,0.0,0.0,43,0.00,,SCT016,0.00,VWS V14.00,2013-04-05 10:33:00,
2013-04-05 06:36:00,34.7,14.5,28.91,South,177,0.0,0.0,43,0.00,,SCT016,0.00,VWS V14.00,2013-04-05 10:36:00,
2013-04-05 06:37:00,34.7,14.5,28.91,SSW,211,0.0,0.0,43,0.00,,SCT016,0.00,VWS V14.00,2013-04-05 10:37:00,
2013-04-05 06:38:00,34.7,14.5,28.91,SSE,159,0.0,0.0,43,0.00,,SCT016,0.00,VWS V14.00,2013-04-05 10:38:00,
2013-04-05 06:42:00,34.5,14.3,28.91,SSE,160,0.0,0.0,43,0.00,,SCT016,0.00,VWS V14.00,2013-04-05 10:42:00,
2013-04-05 06:44:00,34.5,14.3,28.91,SSE,159,0.0,0.0,43,0.00,,SCT016,0.00,VWS V14.00,2013-04-05 10:44:00,
2013-04-05 06:47:00,34.3,14.2,28.91,South,190,0.0,0.0,43,0.00,,SCT016,0.00,VWS V14.00,2013-04-05 10:47:00,
2013-04-05 06:48:00,34.3,14.2,28.91,South,190,0.0,0.0,43,0.00,,SCT016,0.00,VWS V14.00,2013-04-05 10:48:00,
2013-04-05 06:50:00,34.3,14.2,28.91,South,190,0.0,0.0,43,0.00,,SCT016,0.00,VWS V14.00,2013-04-05 10:50:00,
2013-04-05 06:52:00,34.3,14.2,28.91,SE,124,0.0,0.0,43,0.00,,SCT016,0.00,VWS V14.00,2013-04-05 10:52:00,
2013-04-05 06:53:00,34.3,14.2,28.91,SE,124,0.0,0.0,43,0.00,,SCT016,0.00,VWS V14.00,2013-04-05 10:53:00,
2013-04-05 06:55:00,34.2,14.0,28.91,South,180,0.0,0.0,43,0.00,,SCT016,0.00,VWS V14.00,2013-04-05 10:55:00,
2013-04-05 06:57:00,34.2,13.5,28.91,South,180,4.0,4.0,42,0.00,,SCT016,0.00,VWS V14.00,2013-04-05 10:57:00,
2013-04-05 06:58:00,34.2,13.5,28.91,South,180,2.2,2.2,42,0.00,,SCT016,0.00,VWS V14.00,2013-04-05 10:58:00,
2013-04-05 07:00:00,34.2,13.5,28.91,SSE,168,0.0,0.0,42,0.00,,CLR,0.00,VWS V14.00,2013-04-05 11:00:00,
2013-04-05 07:03:00,34.0,13.3,28.91,SE,129,0.0,0.0,42,0.00,,CLR,0.00,VWS V14.00,2013-04-05 11:03:00,
2013-04-05 07:05:00,34.0,13.3,28.91,SSE,159,0.0,0.0,42,0.00,,CLR,0.00,VWS V14.00,2013-04-05 11:05:00,
2013-04-05 07:08:00,34.0,13.3,28.91,South,185,0.0,0.0,42,0.00,,CLR,0.00,VWS V14.00,2013-04-05 11:08:00,
2013-04-05 07:11:00,34.0,13.3,28.91,SSE,150,0.0,0.0,42,0.00,,CLR,0.00,VWS V14.00,2013-04-05 11:11:00,
2013-04-05 07:13:00,33.8,13.1,28.91,SSE,168,0.0,0.0,42,0.00,,CLR,0.00,VWS V14.00,2013-04-05 11:13:00,
2013-04-05 07:14:00,33.8,12.6,28.91,South,169,0.0,0.0,41,0.00,,CLR,0.00,VWS V14.00,2013-04-05 11:14:00,
2013-04-05 07:16:00,33.8,12.6,28.91,SSE,168,3.1,3.1,41,0.00,,CLR,0.00,VWS V14.00,2013-04-05 11:16:00,
2013-04-05 07:18:00,33.8,12.6,29.03,ESE,114,2.7,2.7,41,0.00,,CLR,0.00,VWS V14.00,2013-04-05 11:18:00,
2013-04-05 07:19:00,33.8,12.6,29.03,SSE,155,0.0,0.0,41,0.00,,CLR,0.00,VWS V14.00,2013-04-05 11:19:00,
2013-04-05 07:21:00,33.8,12.6,29.03,South,184,0.0,0.0,41,0.00,,CLR,0.00,VWS V14.00,2013-04-05 11:21:00,
2013-04-05 07:23:00,33.8,12.6,29.03,South,184,0.0,0.0,41,0.00,,CLR,0.00,VWS V14.00,2013-04-05 11:23:00,
2013-04-05 07:24:00,33.8,12.6,29.03,South,184,0.0,0.0,41,0.00,,CLR,0.00,VWS V14.00,2013-04-05 11:24:00,
2013-04-05 07:26:00,33.8,12.6,29.03,SSW,206,0.0,0.0,41,0.00,,CLR,0.00,VWS V14.00,2013-04-05 11:26:00,
2013-04-05 07:28:00,33.8,12.6,29.03,South,179,3.6,3.6,41,0.00,,CLR,0.00,VWS V14.00,2013-04-05 11:28:00,
2013-04-05 07:29:00,33.8,12.6,29.03,SE,130,0.0,0.0,41,0.00,,CLR,0.00,VWS V14.00,2013-04-05 11:29:00,
2013-04-05 07:32:00,33.8,12.1,29.03,SSE,166,0.0,0.0,40,0.00,,CLR,0.00,VWS V14.00,2013-04-05 11:32:00,
2013-04-05 07:33:00,33.8,12.1,29.03,South,190,0.0,0.0,40,0.00,,CLR,0.00,VWS V14.00,2013-04-05 11:33:00,
2013-04-05 07:34:00,33.8,12.1,29.03,South,189,0.0,0.0,40,0.00,,CLR,0.00,VWS V14.00,2013-04-05 11:34:00,
2013-04-05 07:37:00,33.8,12.1,29.03,South,190,0.0,0.0,40,0.00,,CLR,0.00,VWS V14.00,2013-04-05 11:37:00,
2013-04-05 07:39:00,33.8,12.1,29.03,South,170,0.0,0.0,40,0.00,,CLR,0.00,VWS V14.00,2013-04-05 11:39:00,
2013-04-05 07:42:00,33.6,12.4,29.03,SSW,198,0.0,0.0,41,0.00,,CLR,0.00,VWS V14.00,2013-04-05 11:42:00,
2013-04-05 07:44:00,33.8,12.1,29.03,South,187,0.0,0.0,40,0.00,,CLR,0.00,VWS V14.00,2013-04-05 11:44:00,
2013-04-05 07:45:00,33.8,12.1,29.03,South,188,0.0,0.0,40,0.00,,CLR,0.00,VWS V14.00,2013-04-05 11:45:00,
2013-04-05 07:49:00,33.8,12.1,29.06,SSW,206,3.1,3.1,40,0.00,,CLR,0.00,VWS V14.00,2013-04-05 11:49:00,
2013-04-05 07:50:00,33.8,12.1,29.06,SSW,199,0.0,0.0,40,0.00,,CLR,0.00,VWS V14.00,2013-04-05 11:50:00,
2013-04-05 07:54:00,33.8,12.1,29.06,South,187,0.0,0.0,40,0.00,,CLR,0.00,VWS V14.00,2013-04-05 11:54:00,
2013-04-05 07:55:00,33.8,12.1,29.06,SSW,213,2.2,2.2,40,0.00,,CLR,0.00,VWS V14.00,2013-04-05 11:55:00,
2013-04-05 07:59:00,34.0,12.2,29.06,South,185,0.0,0.0,40,0.00,,FEW016,0.00,VWS V14.00,2013-04-05 11:59:00,
2013-04-05 08:00:00,34.0,12.2,29.06,South,181,0.0,0.0,40,0.00,,FEW016,0.00,VWS V14.00,2013-04-05 12:00:00,
2013-04-05 08:05:00,34.2,10.6,29.06,SSW,195,0.0,0.0,37,0.00,,FEW016,0.00,VWS V14.00,2013-04-05 12:05:00,
2013-04-05 08:06:00,34.2,10.6,29.06,ESE,115,0.0,0.0,37,0.00,,FEW016,0.00,VWS V14.00,2013-04-05 12:06:00,
2013-04-05 08:10:00,34.2,10.6,29.06,ESE,114,3.6,3.6,37,0.00,,FEW016,0.00,VWS V14.00,2013-04-05 12:10:00,
2013-04-05 08:11:00,34.3,10.8,29.06,South,190,2.7,2.7,37,0.00,,FEW016,0.00,VWS V14.00,2013-04-05 12:11:00,
2013-04-05 08:15:00,34.3,10.2,29.06,East,101,0.0,0.0,36,0.00,,FEW016,0.00,VWS V14.00,2013-04-05 12:15:00,
2013-04-05 08:17:00,34.3,10.2,29.06,SSE,168,0.0,0.0,36,0.00,,FEW016,0.00,VWS V14.00,2013-04-05 12:17:00,
2013-04-05 08:20:00,34.5,9.7,29.06,South,189,0.0,0.0,35,0.00,,FEW016,0.00,VWS V14.00,2013-04-05 12:20:00,
2013-04-05 08:22:00,34.5,9.7,29.06,South,175,3.1,3.1,35,0.00,,FEW016,0.00,VWS V14.00,2013-04-05 12:22:00,
2013-04-05 08:25:00,34.7,9.9,29.06,South,189,0.0,0.0,35,0.00,,FEW016,0.00,VWS V14.00,2013-04-05 12:25:00,
2013-04-05 08:27:00,34.9,10.0,29.06,South,176,0.0,0.0,35,0.00,,FEW016,0.00,VWS V14.00,2013-04-05 12:27:00,
2013-04-05 08:30:00,34.9,9.4,29.06,South,172,0.0,0.0,34,0.00,,FEW016,0.00,VWS V14.00,2013-04-05 12:30:00,
2013-04-05 08:32:00,35.1,8.9,29.06,ESE,122,0.0,0.0,33,0.00,,FEW016,0.00,VWS V14.00,2013-04-05 12:32:00,
2013-04-05 08:35:00,35.2,9.0,29.06,ESE,114,2.7,2.7,33,0.00,,FEW016,0.00,VWS V14.00,2013-04-05 12:35:00,
2013-04-05 08:36:00,35.2,9.0,29.06,SE,144,3.6,3.6,33,0.00,,FEW016,0.00,VWS V14.00,2013-04-05 12:36:00,
2013-04-05 08:37:00,35.2,9.0,29.06,SSE,155,0.0,0.0,33,0.00,,FEW016,0.00,VWS V14.00,2013-04-05 12:37:00,
2013-04-05 08:40:00,35.4,8.5,29.06,SW,218,3.1,3.1,32,0.00,,FEW016,0.00,VWS V14.00,2013-04-05 12:40:00,
2013-04-05 08:41:00,35.4,8.5,29.06,South,178,3.1,3.1,32,0.00,,FEW016,0.00,VWS V14.00,2013-04-05 12:41:00,
2013-04-05 08:42:00,35.4,8.5,29.06,SE,125,4.0,4.0,32,0.00,,FEW016,0.00,VWS V14.00,2013-04-05 12:42:00,
2013-04-05 08:45:00,35.4,7.8,29.06,SSW,206,3.6,3.6,31,0.00,,FEW016,0.00,VWS V14.00,2013-04-05 12:45:00,
2013-04-05 08:46:00,35.4,7.8,29.06,South,184,4.0,4.0,31,0.00,,FEW016,0.00,VWS V14.00,2013-04-05 12:46:00,
2013-04-05 08:47:00,35.4,7.8,29.06,SSW,196,0.0,0.0,31,0.00,,FEW016,0.00,VWS V14.00,2013-04-05 12:47:00,
2013-04-05 08:48:00,35.6,7.2,29.06,SSW,192,3.1,3.1,30,0.00,,FEW016,0.00,VWS V14.00,2013-04-05 12:48:00,
2013-04-05 08:50:00,35.6,7.2,29.06,SW,216,0.0,0.0,30,0.00,,FEW016,0.00,VWS V14.00,2013-04-05 12:50:00,
2013-04-05 08:51:00,35.6,7.2,29.06,SSW,196,0.0,0.0,30,0.00,,FEW016,0.00,VWS V14.00,2013-04-05 12:51:00,
2013-04-05 08:52:00,35.8,7.4,29.06,ENE,63,5.4,5.4,30,0.00,,FEW016,0.00,VWS V14.00,2013-04-05 12:52:00,
2013-04-05 08:53:00,35.8,7.4,29.06,ESE,120,0.0,0.0,30,0.00,,FEW016,0.00,VWS V14.00,2013-04-05 12:53:00,
2013-04-05 08:56:00,36.0,7.6,29.06,South,172,0.0,0.0,30,0.00,,FEW016,0.00,VWS V14.00,2013-04-05 12:56:00,
2013-04-05 08:58:00,36.1,7.0,29.09,ESE,106,5.8,5.8,29,0.00,,FEW016,0.00,VWS V14.00,2013-04-05 12:58:00,
2013-04-05 08:59:00,36.3,7.1,29.09,ESE,113,3.1,3.1,29,0.00,,FEW032,0.00,VWS V14.00,2013-04-05 12:59:00,
2013-04-05 09:01:00,36.3,7.1,29.09,South,184,3.1,3.1,29,0.00,,FEW032,0.00,VWS V14.00,2013-04-05 13:01:00,
2013-04-05 09:03:00,36.5,7.3,29.09,South,178,5.4,5.4,29,0.00,,FEW032,0.00,VWS V14.00,2013-04-05 13:03:00,
2013-04-05 09:04:00,36.5,5.7,29.09,South,184,3.6,3.6,27,0.00,,FEW032,0.00,VWS V14.00,2013-04-05 13:04:00,
2013-04-05 09:06:00,36.7,5.9,29.09,SSW,193,2.7,2.7,27,0.00,,FEW032,0.00,VWS V14.00,2013-04-05 13:06:00,
2013-04-05 09:08:00,36.7,5.9,29.09,South,180,2.2,2.2,27,0.00,,FEW032,0.00,VWS V14.00,2013-04-05 13:08:00,
2013-04-05 09:09:00,36.9,6.0,29.09,SW,216,3.1,3.1,27,0.00,,FEW032,0.00,VWS V14.00,2013-04-05 13:09:00,
2013-04-05 09:11:00,36.9,6.0,29.09,SSE,166,0.0,0.0,27,0.00,,FEW032,0.00,VWS V14.00,2013-04-05 13:11:00,
2013-04-05 09:12:00,36.9,6.0,29.09,South,187,0.0,0.0,27,0.00,,FEW032,0.00,VWS V14.00,2013-04-05 13:12:00,
2013-04-05 09:13:00,37.0,6.2,29.09,East,91,3.6,3.6,27,0.00,,FEW032,0.00,VWS V14.00,2013-04-05 13:13:00,
2013-04-05 09:14:00,37.2,6.3,29.09,SSE,151,2.2,2.2,27,0.00,,FEW032,0.00,VWS V14.00,2013-04-05 13:14:00,
2013-04-05 09:17:00,37.4,5.7,29.09,ESE,106,4.9,4.9,26,0.00,,FEW032,0.00,VWS V14.00,2013-04-05 13:17:00,
2013-04-05 09:19:00,37.4,5.7,29.09,SSE,166,4.9,4.9,26,0.00,,FEW032,0.00,VWS V14.00,2013-04-05 13:19:00,
2013-04-05 09:20:00,37.4,3.9,29.09,East,97,8.3,8.3,24,0.00,,FEW032,0.00,VWS V14.00,2013-04-05 13:20:00,
2013-04-05 09:22:00,37.6,4.1,29.09,SSW,198,2.7,2.7,24,0.00,,FEW032,0.00,VWS V14.00,2013-04-05 13:22:00,
2013-04-05 09:24:00,37.8,6.0,29.09,ESE,106,4.9,4.9,26,0.00,,FEW032,0.00,VWS V14.00,2013-04-05 13:24:00,
2013-04-05 09:25:00,37.8,6.0,29.09,SSE,167,2.7,2.7,26,0.00,,FEW032,0.00,VWS V14.00,2013-04-05 13:25:00,
2013-04-05 09:27:00,37.9,6.1,29.09,SSW,194,3.6,3.6,26,0.00,,FEW032,0.00,VWS V14.00,2013-04-05 13:27:00,
2013-04-05 09:29:00,38.1,4.5,29.09,ESE,103,7.2,7.2,24,0.00,,FEW032,0.00,VWS V14.00,2013-04-05 13:29:00,
2013-04-05 09:30:00,38.1,4.5,29.09,ESE,112,4.0,4.0,24,0.00,,FEW032,0.00,VWS V14.00,2013-04-05 13:30:00,
2013-04-05 09:32:00,38.1,4.5,29.09,SSW,192,2.7,2.7,24,0.00,,FEW032,0.00,VWS V14.00,2013-04-05 13:32:00,
2013-04-05 09:34:00,38.1,4.5,29.09,SSW,207,0.0,0.0,24,0.00,,FEW032,0.00,VWS V14.00,2013-04-05 13:34:00,
2013-04-05 09:35:00,38.3,4.7,29.09,South,173,3.6,3.6,24,0.00,,FEW032,0.00,VWS V14.00,2013-04-05 13:35:00,
2013-04-05 09:37:00,38.5,4.8,29.09,South,174,3.1,3.1,24,0.00,,FEW032,0.00,VWS V14.00,2013-04-05 13:37:00,
2013-04-05 09:40:00,38.7,5.0,29.09,South,189,3.1,3.1,24,0.00,,FEW032,0.00,VWS V14.00,2013-04-05 13:40:00,
2013-04-05 09:42:00,38.7,2.1,29.09,SE,128,0.0,0.0,21,0.00,,FEW032,0.00,VWS V14.00,2013-04-05 13:42:00,
2013-04-05 09:43:00,38.8,2.3,29.09,SE,128,0.0,0.0,21,0.00,,FEW032,0.00,VWS V14.00,2013-04-05 13:43:00,
2013-04-05 09:45:00,38.8,2.3,29.09,SE,135,6.3,6.3,21,0.00,,FEW032,0.00,VWS V14.00,2013-04-05 13:45:00,
2013-04-05 09:47:00,39.0,0.3,29.09,ESE,102,3.6,3.6,19,0.00,,FEW032,0.00,VWS V14.00,2013-04-05 13:47:00,
2013-04-05 09:48:00,38.8,0.1,29.09,South,171,3.1,3.1,19,0.00,,FEW032,0.00,VWS V14.00,2013-04-05 13:48:00,
2013-04-05 09:50:00,39.0,0.3,29.09,SSW,194,3.1,3.1,19,0.00,,FEW032,0.00,VWS V14.00,2013-04-05 13:50:00,
2013-04-05 09:52:00,39.2,-0.7,29.09,South,183,2.7,2.7,18,0.00,,FEW032,0.00,VWS V14.00,2013-04-05 13:52:00,
2013-04-05 09:53:00,39.2,-0.7,29.09,South,180,3.1,3.1,18,0.00,,FEW032,0.00,VWS V14.00,2013-04-05 13:53:00,
2013-04-05 09:55:00,39.4,-0.6,29.09,East,93,4.9,4.9,18,0.00,,FEW032,0.00,VWS V14.00,2013-04-05 13:55:00,
2013-04-05 09:57:00,39.6,-0.4,29.09,WSW,238,3.6,3.6,18,0.00,,FEW032,0.00,VWS V14.00,2013-04-05 13:57:00,
2013-04-05 09:58:00,39.6,-0.4,29.09,ESE,115,3.6,3.6,18,0.00,,FEW032,0.00,VWS V14.00,2013-04-05 13:58:00,
2013-04-05 10:00:00,39.7,-0.3,29.09,ESE,108,3.1,3.1,18,0.00,,FEW037,0.00,VWS V14.00,2013-04-05 14:00:00,
2013-04-05 10:02:00,39.7,-2.8,29.09,SSE,168,3.1,3.1,16,0.00,,FEW037,0.00,VWS V14.00,2013-04-05 14:02:00,
2013-04-05 10:04:00,39.7,-0.3,29.09,ESE,113,5.4,5.4,18,0.00,,FEW037,0.00,VWS V14.00,2013-04-05 14:04:00,
2013-04-05 10:05:00,39.9,-2.6,29.09,South,171,4.0,4.0,16,0.00,,FEW037,0.00,VWS V14.00,2013-04-05 14:05:00,
2013-04-05 10:07:00,40.1,-2.5,29.09,ESE,108,2.7,2.7,16,0.00,,FEW037,0.00,VWS V14.00,2013-04-05 14:07:00,
2013-04-05 10:08:00,40.1,-2.5,29.09,East,99,2.7,2.7,16,0.00,,FEW037,0.00,VWS V14.00,2013-04-05 14:08:00,
2013-04-05 10:09:00,40.3,-2.3,29.09,SSE,159,0.0,0.0,16,0.00,,FEW037,0.00,VWS V14.00,2013-04-05 14:09:00,
2013-04-05 10:10:00,40.3,-2.3,29.09,ESE,111,3.1,3.1,16,0.00,,FEW037,0.00,VWS V14.00,2013-04-05 14:10:00,
2013-04-05 10:12:00,40.5,-2.2,29.09,SSW,196,2.7,2.7,16,0.00,,FEW037,0.00,VWS V14.00,2013-04-05 14:12:00,
2013-04-05 10:13:00,40.5,-2.2,29.09,SSW,193,3.6,3.6,16,0.00,,FEW037,0.00,VWS V14.00,2013-04-05 14:13:00,
2013-04-05 10:14:00,40.5,-2.2,29.09,SSW,193,4.0,4.0,16,0.00,,FEW037,0.00,VWS V14.00,2013-04-05 14:14:00,
2013-04-05 10:15:00,40.5,-2.2,29.09,ESE,115,2.7,2.7,16,0.00,,FEW037,0.00,VWS V14.00,2013-04-05 14:15:00,
2013-04-05 10:18:00,40.6,-2.0,29.09,South,172,3.1,3.1,16,0.00,,FEW037,0.00,VWS V14.00,2013-04-05 14:18:00,
2013-04-05 10:19:00,40.8,-1.9,29.09,South,187,2.7,2.7,16,0.00,,FEW037,0.00,VWS V14.00,2013-04-05 14:19:00,
2013-04-05 10:20:00,40.8,-1.9,29.09,WSW,245,4.9,4.9,16,0.00,,FEW037,0.00,VWS V14.00,2013-04-05 14:20:00,
2013-04-05 10:23:00,41.0,-1.7,29.09,South,181,2.7,2.7,16,0.00,,FEW037,0.00,VWS V14.00,2013-04-05 14:23:00,
2013-04-05 10:25:00,41.2,-1.6,29.09,SSW,195,2.7,2.7,16,0.00,,FEW037,0.00,VWS V14.00,2013-04-05 14:25:00,
2013-04-05 10:29:00,41.4,-1.5,29.09,SE,134,2.7,2.7,16,0.00,,FEW037,0.00,VWS V14.00,2013-04-05 14:29:00,
2013-04-05 10:30:00,41.4,-1.5,29.09,SSE,152,4.0,4.0,16,0.00,,FEW037,0.00,VWS V14.00,2013-04-05 14:30:00,
2013-04-05 10:31:00,41.4,-1.5,29.09,SW,235,2.2,2.2,16,0.00,,FEW037,0.00,VWS V14.00,2013-04-05 14:31:00,
2013-04-05 10:35:00,41.5,-1.3,29.09,SSW,211,4.0,4.0,16,0.00,,FEW037,0.00,VWS V14.00,2013-04-05 14:35:00,
2013-04-05 10:36:00,41.5,-1.3,29.09,SW,235,2.2,2.2,16,0.00,,FEW037,0.00,VWS V14.00,2013-04-05 14:36:00,
2013-04-05 10:40:00,42.1,-0.9,29.09,South,191,2.7,2.7,16,0.00,,FEW037,0.00,VWS V14.00,2013-04-05 14:40:00,
2013-04-05 10:41:00,42.3,-0.7,29.09,ESE,116,5.4,5.4,16,0.00,,FEW037,0.00,VWS V14.00,2013-04-05 14:41:00,
2013-04-05 10:45:00,42.3,-0.7,29.09,South,186,3.6,3.6,16,0.00,,FEW037,0.00,VWS V14.00,2013-04-05 14:45:00,
2013-04-05 10:46:00,42.3,-0.7,29.09,ESE,108,6.3,6.3,16,0.00,,FEW037,0.00,VWS V14.00,2013-04-05 14:46:00,
2013-04-05 10:47:00,42.3,-0.7,29.09,SW,236,2.7,2.7,16,0.00,,FEW037,0.00,VWS V14.00,2013-04-05 14:47:00,
2013-04-05 10:50:00,42.1,-0.9,29.09,SW,214,3.6,3.6,16,0.00,,FEW037,0.00,VWS V14.00,2013-04-05 14:50:00,
2013-04-05 10:51:00,42.1,-0.9,29.09,ESE,107,7.6,7.6,16,0.00,,FEW037,0.00,VWS V14.00,2013-04-05 14:51:00,
2013-04-05 10:52:00,42.1,-0.9,29.09,ESE,105,2.7,2.7,16,0.00,,FEW037,0.00,VWS V14.00,2013-04-05 14:52:00,
2013-04-05 10:53:00,42.1,-0.9,29.09,SE,141,3.1,3.1,16,0.00,,FEW037,0.00,VWS V14.00,2013-04-05 14:53:00,
2013-04-05 10:55:00,42.3,-0.7,29.09,ESE,107,2.7,2.7,16,0.00,,FEW037,0.00,VWS V14.00,2013-04-05 14:55:00,
2013-04-05 10:57:00,42.4,-0.6,29.09,SE,126,6.3,6.3,16,0.00,,FEW037,0.00,VWS V14.00,2013-04-05 14:57:00,
2013-04-05 10:58:00,42.4,-0.6,29.09,East,85,4.0,4.0,16,0.00,,FEW037,0.00,VWS V14.00,2013-04-05 14:58:00,
2013-04-05 11:00:00,42.4,-0.6,29.09,East,94,3.1,3.1,16,0.00,,FEW045,0.00,VWS V14.00,2013-04-05 15:00:00,
2013-04-05 11:02:00,42.4,-0.6,29.09,South,179,0.0,0.0,16,0.00,,FEW045,0.00,VWS V14.00,2013-04-05 15:02:00,
2013-04-05 11:04:00,42.8,-1.6,29.09,SW,235,3.6,3.6,15,0.00,,FEW045,0.00,VWS V14.00,2013-04-05 15:04:00,
2013-04-05 11:05:00,43.0,-1.5,29.09,SSE,168,3.1,3.1,15,0.00,,FEW045,0.00,VWS V14.00,2013-04-05 15:05:00,
2013-04-05 11:07:00,43.0,-1.5,29.09,South,188,3.1,3.1,15,0.00,,FEW045,0.00,VWS V14.00,2013-04-05 15:07:00,
2013-04-05 11:10:00,43.0,-1.5,29.09,NE,54,3.6,3.6,15,0.00,,FEW045,0.00,VWS V14.00,2013-04-05 15:10:00,
2013-04-05 11:12:00,42.8,-1.6,29.09,SSW,205,4.0,4.0,15,0.00,,FEW045,0.00,VWS V14.00,2013-04-05 15:12:00,
2013-04-05 11:15:00,42.8,-1.6,29.09,ESE,119,0.0,0.0,15,0.00,,FEW045,0.00,VWS V14.00,2013-04-05 15:15:00,
2013-04-05 11:16:00,42.8,-1.6,29.09,ESE,104,4.0,4.0,15,0.00,,FEW045,0.00,VWS V14.00,2013-04-05 15:16:00,
2013-04-05 11:17:00,43.0,-1.5,29.09,SW,229,2.2,2.2,15,0.00,,FEW045,0.00,VWS V14.00,2013-04-05 15:17:00,
2013-04-05 11:20:00,43.3,-1.2,29.09,SSW,193,3.1,3.1,15,0.00,,FEW045,0.00,VWS V14.00,2013-04-05 15:20:00,
2013-04-05 11:21:00,43.5,-1.1,29.09,South,187,3.1,3.1,15,0.00,,FEW045,0.00,VWS V14.00,2013-04-05 15:21:00,
2013-04-05 11:22:00,43.5,-1.1,29.09,ESE,108,2.7,2.7,15,0.00,,FEW045,0.00,VWS V14.00,2013-04-05 15:22:00,
2013-04-05 11:26:00,43.5,-1.1,29.09,South,175,2.7,2.7,15,0.00,,FEW045,0.00,VWS V14.00,2013-04-05 15:26:00,
2013-04-05 11:27:00,43.7,-0.9,29.09,ESE,115,2.7,2.7,15,0.00,,FEW045,0.00,VWS V14.00,2013-04-05 15:27:00,
2013-04-05 11:28:00,43.7,-0.9,29.09,East,94,5.4,5.4,15,0.00,,FEW045,0.00,VWS V14.00,2013-04-05 15:28:00,
2013-04-05 11:31:00,44.1,-0.6,29.09,South,177,4.0,4.0,15,0.00,,FEW045,0.00,VWS V14.00,2013-04-05 15:31:00,
2013-04-05 11:32:00,44.1,-0.6,29.09,SE,136,2.7,2.7,15,0.00,,FEW045,0.00,VWS V14.00,2013-04-05 15:32:00,
2013-04-05 11:33:00,44.1,-0.6,29.09,South,176,3.1,3.1,15,0.00,,FEW045,0.00,VWS V14.00,2013-04-05 15:33:00,
2013-04-05 11:37:00,44.1,-0.6,29.09,South,190,8.1,8.1,15,0.00,,FEW045,0.00,VWS V14.00,2013-04-05 15:37:00,
2013-04-05 11:38:00,44.1,-0.6,29.09,East,99,3.1,3.1,15,0.00,,FEW045,0.00,VWS V14.00,2013-04-05 15:38:00,
2013-04-05 11:42:00,44.2,-0.5,29.09,SSW,210,3.6,3.6,15,0.00,,FEW045,0.00,VWS V14.00,2013-04-05 15:42:00,
2013-04-05 11:43:00,44.4,-0.3,29.09,South,178,3.6,3.6,15,0.00,,FEW045,0.00,VWS V14.00,2013-04-05 15:43:00,
2013-04-05 11:47:00,44.8,0.0,29.09,South,178,0.0,0.0,15,0.00,,FEW045,0.00,VWS V14.00,2013-04-05 15:47:00,
2013-04-05 11:48:00,44.8,0.0,29.09,South,169,2.2,2.2,15,0.00,,FEW045,0.00,VWS V14.00,2013-04-05 15:48:00,
2013-04-05 11:52:00,45.7,0.7,29.09,ESE,119,0.0,0.0,15,0.00,,FEW045,0.00,VWS V14.00,2013-04-05 15:52:00,
2013-04-05 11:53:00,45.7,0.7,29.09,SSW,207,2.7,2.7,15,0.00,,FEW045,0.00,VWS V14.00,2013-04-05 15:53:00,
2013-04-05 11:57:00,45.7,0.7,29.09,ESE,110,4.5,4.5,15,0.00,,FEW045,0.00,VWS V14.00,2013-04-05 15:57:00,
2013-04-05 11:58:00,45.5,0.6,29.09,ESE,112,5.4,5.4,15,0.00,,FEW045,0.00,VWS V14.00,2013-04-05 15:58:00,
2013-04-05 11:59:00,45.5,0.6,29.09,South,178,5.8,5.8,15,0.00,,FEW045,0.00,VWS V14.00,2013-04-05 15:59:00,
2013-04-05 12:02:00,45.5,0.6,29.09,SE,140,4.0,4.0,15,0.00,,FEW045,0.00,VWS V14.00,2013-04-05 16:02:00,
2013-04-05 12:03:00,45.5,0.6,29.09,East,100,5.8,5.8,15,0.00,,FEW045,0.00,VWS V14.00,2013-04-05 16:03:00,
2013-04-05 12:04:00,45.5,0.6,29.09,ESE,107,5.4,5.4,15,0.00,,FEW045,0.00,VWS V14.00,2013-04-05 16:04:00,
2013-04-05 12:07:00,45.5,0.6,29.09,ESE,114,4.9,4.9,15,0.00,,FEW045,0.00,VWS V14.00,2013-04-05 16:07:00,
2013-04-05 12:08:00,45.5,0.6,29.09,SSW,202,2.2,2.2,15,0.00,,FEW045,0.00,VWS V14.00,2013-04-05 16:08:00,
2013-04-05 12:09:00,45.5,0.6,29.09,SE,136,6.3,6.3,15,0.00,,FEW045,0.00,VWS V14.00,2013-04-05 16:09:00,
2013-04-05 12:10:00,45.5,0.6,29.09,ESE,108,8.3,8.3,15,0.00,,FEW045,0.00,VWS V14.00,2013-04-05 16:10:00,
2013-04-05 12:13:00,45.5,0.6,29.09,South,190,3.6,3.6,15,0.00,,FEW045,0.00,VWS V14.00,2013-04-05 16:13:00,
2013-04-05 12:15:00,45.5,0.6,29.09,SSE,155,3.6,3.6,15,0.00,,FEW045,0.00,VWS V14.00,2013-04-05 16:15:00,
2013-04-05 12:16:00,45.5,0.6,29.09,ESE,121,3.1,3.1,15,0.00,,FEW045,0.00,VWS V14.00,2013-04-05 16:16:00,
2013-04-05 12:18:00,45.7,0.7,29.09,East,95,5.8,5.8,15,0.00,,FEW045,0.00,VWS V14.00,2013-04-05 16:18:00,
2013-04-05 12:20:00,45.5,0.6,29.09,ESE,115,5.8,5.8,15,0.00,,FEW045,0.00,VWS V14.00,2013-04-05 16:20:00,
2013-04-05 12:21:00,45.5,0.6,29.09,ESE,110,4.9,4.9,15,0.00,,FEW045,0.00,VWS V14.00,2013-04-05 16:21:00,
2013-04-05 12:23:00,45.3,0.4,29.09,ESE,113,2.7,2.7,15,0.00,,FEW045,0.00,VWS V14.00,2013-04-05 16:23:00,
2013-04-05 12:25:00,45.5,0.6,29.09,West,259,4.0,4.0,15,0.00,,FEW045,0.00,VWS V14.00,2013-04-05 16:25:00,
2013-04-05 12:27:00,45.5,0.6,29.09,South,175,4.0,4.0,15,0.00,,FEW045,0.00,VWS V14.00,2013-04-05 16:27:00,
2013-04-05 12:28:00,45.5,0.6,29.09,SW,224,0.0,0.0,15,0.00,,FEW045,0.00,VWS V14.00,2013-04-05 16:28:00,
2013-04-05 12:30:00,45.7,0.7,29.09,South,177,2.7,2.7,15,0.00,,FEW045,0.00,VWS V14.00,2013-04-05 16:30:00,
2013-04-05 12:32:00,45.9,0.8,29.09,SSE,157,2.2,2.2,15,0.00,,FEW045,0.00,VWS V14.00,2013-04-05 16:32:00,
2013-04-05 12:33:00,46.0,1.0,29.09,SE,143,0.0,0.0,15,0.00,,FEW045,0.00,VWS V14.00,2013-04-05 16:33:00,
2013-04-05 12:34:00,46.0,1.0,29.09,South,171,0.0,0.0,15,0.00,,FEW045,0.00,VWS V14.00,2013-04-05 16:34:00,
2013-04-05 12:36:00,46.4,-0.2,29.09,ESE,108,3.1,3.1,14,0.00,,FEW045,0.00,VWS V14.00,2013-04-05 16:36:00,
2013-04-05 12:37:00,46.6,-0.1,29.09,ESE,106,5.8,5.8,14,0.00,,FEW045,0.00,VWS V14.00,2013-04-05 16:37:00,
2013-04-05 12:38:00,46.8,0.1,29.09,East,97,8.3,8.3,14,0.00,,FEW045,0.00,VWS V14.00,2013-04-05 16:38:00,
2013-04-05 12:39:00,46.8,0.1,29.09,ESE,113,4.0,4.0,14,0.00,,FEW045,0.00,VWS V14.00,2013-04-05 16:39:00,
2013-04-05 12:41:00,46.8,0.1,29.09,SE,126,3.1,3.1,14,0.00,,FEW045,0.00,VWS V14.00,2013-04-05 16:41:00,
2013-04-05 12:42:00,46.8,0.1,29.09,ENE,75,5.8,5.8,14,0.00,,FEW045,0.00,VWS V14.00,2013-04-05 16:42:00,
2013-04-05 12:44:00,46.9,0.2,29.09,SSE,155,2.7,2.7,14,0.00,,FEW045,0.00,VWS V14.00,2013-04-05 16:44:00,
2013-04-05 12:46:00,47.1,0.4,29.09,ESE,102,5.4,5.4,14,0.00,,FEW045,0.00,VWS V14.00,2013-04-05 16:46:00,
2013-04-05 12:47:00,47.5,0.7,29.09,ESE,114,3.6,3.6,14,0.00,,FEW045,0.00,VWS V14.00,2013-04-05 16:47:00,
2013-04-05 12:49:00,47.7,0.8,29.09,South,176,5.8,5.8,14,0.00,,FEW045,0.00,VWS V14.00,2013-04-05 16:49:00,
2013-04-05 12:51:00,47.7,0.8,29.09,WSW,252,3.6,3.6,14,0.00,,FEW045,0.00,VWS V14.00,2013-04-05 16:51:00,
2013-04-05 12:53:00,47.5,0.7,29.09,SW,214,2.7,2.7,14,0.00,,FEW045,0.00,VWS V14.00,2013-04-05 16:53:00,
2013-04-05 12:54:00,47.5,0.7,29.09,WSW,252,2.7,2.7,14,0.00,,FEW045,0.00,VWS V14.00,2013-04-05 16:54:00,
2013-04-05 12:55:00,47.5,0.7,29.09,East,101,5.4,5.4,14,0.00,,FEW045,0.00,VWS V14.00,2013-04-05 16:55:00,
2013-04-05 12:56:00,47.3,0.5,29.09,ENE,62,6.3,6.3,14,0.00,,FEW045,0.00,VWS V14.00,2013-04-05 16:56:00,
2013-04-05 12:58:00,47.1,0.4,29.09,East,100,5.8,5.8,14,0.00,,FEW045,0.00,VWS V14.00,2013-04-05 16:58:00,
2013-04-05 12:59:00,46.8,0.1,29.09,SW,214,2.7,2.7,14,0.00,,FEW045,0.00,VWS V14.00,2013-04-05 16:59:00,
2013-04-05 13:00:00,46.8,0.1,29.09,SW,230,2.7,2.7,14,0.00,,FEW045,0.00,VWS V14.00,2013-04-05 17:00:00,
2013-04-05 13:01:00,46.8,0.1,29.09,SSW,209,4.0,4.0,14,0.00,,FEW045,0.00,VWS V14.00,2013-04-05 17:01:00,
2013-04-05 13:03:00,46.8,0.1,29.09,South,179,2.2,2.2,14,0.00,,CLR,0.00,VWS V14.00,2013-04-05 17:03:00,
2013-04-05 13:04:00,46.8,0.1,29.09,SE,140,3.1,3.1,14,0.00,,CLR,0.00,VWS V14.00,2013-04-05 17:04:00,
2013-04-05 13:05:00,46.8,0.1,29.09,East,90,2.2,2.2,14,0.00,,CLR,0.00,VWS V14.00,2013-04-05 17:05:00,
2013-04-05 13:06:00,46.9,0.2,29.09,ESE,103,5.8,5.8,14,0.00,,CLR,0.00,VWS V14.00,2013-04-05 17:06:00,
2013-04-05 13:08:00,46.8,0.1,29.09,SE,124,4.0,4.0,14,0.00,,CLR,0.00,VWS V14.00,2013-04-05 17:08:00,
2013-04-05 13:10:00,46.9,0.2,29.09,SSE,165,2.7,2.7,14,0.00,,CLR,0.00,VWS V14.00,2013-04-05 17:10:00,
2013-04-05 13:11:00,46.9,0.2,29.09,South,175,2.7,2.7,14,0.00,,CLR,0.00,VWS V14.00,2013-04-05 17:11:00,
2013-04-05 13:14:00,47.1,0.4,29.09,South,183,3.6,3.6,14,0.00,,CLR,0.00,VWS V14.00,2013-04-05 17:14:00,
2013-04-05 13:15:00,47.3,0.5,29.09,South,177,3.6,3.6,14,0.00,,CLR,0.00,VWS V14.00,2013-04-05 17:15:00,
2013-04-05 13:17:00,47.3,0.5,29.09,South,180,3.6,3.6,14,0.00,,CLR,0.00,VWS V14.00,2013-04-05 17:17:00,
2013-04-05 13:19:00,47.5,0.7,29.09,ESE,104,6.3,6.3,14,0.00,,CLR,0.00,VWS V14.00,2013-04-05 17:19:00,
2013-04-05 13:20:00,47.5,0.7,29.09,SSE,155,6.3,6.3,14,0.00,,CLR,0.00,VWS V14.00,2013-04-05 17:20:00,
2013-04-05 13:22:00,47.3,0.5,29.09,SE,128,2.7,2.7,14,0.00,,CLR,0.00,VWS V14.00,2013-04-05 17:22:00,
2013-04-05 13:24:00,46.9,0.2,29.09,East,96,6.3,6.3,14,0.00,,CLR,0.00,VWS V14.00,2013-04-05 17:24:00,
2013-04-05 13:26:00,46.8,0.1,29.09,SSW,194,5.4,5.4,14,0.00,,CLR,0.00,VWS V14.00,2013-04-05 17:26:00,
2013-04-05 13:27:00,46.8,0.1,29.09,SE,124,2.7,2.7,14,0.00,,CLR,0.00,VWS V14.00,2013-04-05 17:27:00,
2013-04-05 13:29:00,46.6,-0.1,29.09,East,101,5.4,5.4,14,0.00,,CLR,0.00,VWS V14.00,2013-04-05 17:29:00,
2013-04-05 13:31:00,46.6,-0.1,29.09,ESE,117,2.7,2.7,14,0.00,,CLR,0.00,VWS V14.00,2013-04-05 17:31:00,
2013-04-05 13:32:00,46.6,-0.1,29.09,SSW,201,7.6,7.6,14,0.00,,CLR,0.00,VWS V14.00,2013-04-05 17:32:00,
2013-04-05 13:34:00,46.6,-0.1,29.09,ESE,108,4.0,4.0,14,0.00,,CLR,0.00,VWS V14.00,2013-04-05 17:34:00,
2013-04-05 13:37:00,46.2,1.1,29.09,East,90,5.8,5.8,15,0.00,,CLR,0.00,VWS V14.00,2013-04-05 17:37:00,
2013-04-05 13:40:00,46.4,-0.2,29.09,SE,126,3.1,3.1,14,0.00,,CLR,0.00,VWS V14.00,2013-04-05 17:40:00,
2013-04-05 13:42:00,46.8,0.1,29.09,SSE,162,3.6,3.6,14,0.00,,CLR,0.00,VWS V14.00,2013-04-05 17:42:00,
2013-04-05 13:52:00,46.8,0.1,29.09,ESE,104,7.6,7.6,14,0.00,,CLR,0.00,VWS V14.00,2013-04-05 17:52:00,
2013-04-05 13:57:00,46.8,0.1,29.09,East,97,5.8,5.8,14,0.00,,CLR,0.00,VWS V14.00,2013-04-05 17:57:00,
2013-04-05 13:58:00,46.8,0.1,29.09,East,100,3.6,3.6,14,0.00,,CLR,0.00,VWS V14.00,2013-04-05 17:58:00,
2013-04-05 14:02:00,46.6,-0.1,29.09,SE,134,0.0,0.0,14,0.00,,CLR,0.00,VWS V14.00,2013-04-05 18:02:00,
2013-04-05 14:03:00,46.6,-0.1,29.09,SE,134,0.0,0.0,14,0.00,,FEW055,0.00,VWS V14.00,2013-04-05 18:03:00,
2013-04-05 14:07:00,47.1,0.4,29.09,East,101,3.1,3.1,14,0.00,,FEW055,0.00,VWS V14.00,2013-04-05 18:07:00,
2013-04-05 14:08:00,47.1,0.4,29.09,ESE,109,3.6,3.6,14,0.00,,FEW055,0.00,VWS V14.00,2013-04-05 18:08:00,
2013-04-05 14:12:00,47.5,0.7,29.09,East,82,0.0,0.0,14,0.00,,FEW055,0.00,VWS V14.00,2013-04-05 18:12:00,
2013-04-05 14:13:00,47.5,0.7,29.09,East,87,0.0,0.0,14,0.00,,FEW055,0.00,VWS V14.00,2013-04-05 18:13:00,
2013-04-05 14:17:00,47.8,1.0,29.09,East,93,4.0,4.0,14,0.00,,FEW055,0.00,VWS V14.00,2013-04-05 18:17:00,
2013-04-05 14:18:00,47.8,1.0,29.09,ESE,123,4.9,4.9,14,0.00,,FEW055,0.00,VWS V14.00,2013-04-05 18:18:00,
2013-04-05 14:22:00,47.8,1.0,29.09,South,186,0.0,0.0,14,0.00,,FEW055,0.00,VWS V14.00,2013-04-05 18:22:00,
2013-04-05 14:23:00,47.8,1.0,29.09,South,172,0.0,0.0,14,0.00,,FEW055,0.00,VWS V14.00,2013-04-05 18:23:00,
2013-04-05 14:24:00,48.0,1.1,29.09,South,187,3.1,3.1,14,0.00,,FEW055,0.00,VWS V14.00,2013-04-05 18:24:00,
2013-04-05 14:27:00,47.8,1.0,29.09,South,183,5.4,5.4,14,0.00,,FEW055,0.00,VWS V14.00,2013-04-05 18:27:00,
2013-04-05 14:28:00,47.8,1.0,29.09,SE,133,3.6,3.6,14,0.00,,FEW055,0.00,VWS V14.00,2013-04-05 18:28:00,
2013-04-05 14:29:00,48.0,1.1,29.09,SE,133,3.1,3.1,14,0.00,,FEW055,0.00,VWS V14.00,2013-04-05 18:29:00,
2013-04-05 14:33:00,48.0,1.1,29.09,South,190,5.4,5.4,14,0.00,,FEW055,0.00,VWS V14.00,2013-04-05 18:33:00,
2013-04-05 14:34:00,48.0,1.1,29.09,East,100,2.7,2.7,14,0.00,,FEW055,0.00,VWS V14.00,2013-04-05 18:34:00,
2013-04-05 14:38:00,48.2,1.2,29.09,SE,145,2.7,2.7,14,0.00,,FEW055,0.00,VWS V14.00,2013-04-05 18:38:00,
2013-04-05 14:39:00,48.2,1.2,29.09,South,177,4.0,4.0,14,0.00,,FEW055,0.00,VWS V14.00,2013-04-05 18:39:00,
2013-04-05 14:43:00,48.4,1.4,29.09,South,181,3.6,3.6,14,0.00,,FEW055,0.00,VWS V14.00,2013-04-05 18:43:00,
2013-04-05 14:44:00,48.4,1.4,29.09,WSW,245,4.0,4.0,14,0.00,,FEW055,0.00,VWS V14.00,2013-04-05 18:44:00,
2013-04-05 14:45:00,48.4,1.4,29.09,South,169,2.2,2.2,14,0.00,,FEW055,0.00,VWS V14.00,2013-04-05 18:45:00,
2013-04-05 14:48:00,48.4,1.4,29.09,East,101,5.4,5.4,14,0.00,,FEW055,0.00,VWS V14.00,2013-04-05 18:48:00,
2013-04-05 14:49:00,48.4,1.4,29.09,East,99,4.5,4.5,14,0.00,,FEW055,0.00,VWS V14.00,2013-04-05 18:49:00,
2013-04-05 14:50:00,48.4,1.4,29.09,ESE,102,5.4,5.4,14,0.00,,FEW055,0.00,VWS V14.00,2013-04-05 18:50:00,
2013-04-05 14:53:00,48.2,1.2,29.09,ESE,108,5.8,5.8,14,0.00,,FEW055,0.00,VWS V14.00,2013-04-05 18:53:00,
2013-04-05 14:54:00,48.4,1.4,29.09,ESE,123,5.8,5.8,14,0.00,,FEW055,0.00,VWS V14.00,2013-04-05 18:54:00,
2013-04-05 14:55:00,48.4,1.4,29.09,ESE,115,8.3,8.3,14,0.00,,FEW055,0.00,VWS V14.00,2013-04-05 18:55:00,
2013-04-05 14:58:00,48.2,1.2,29.09,East,100,5.4,5.4,14,0.00,,FEW055,0.00,VWS V14.00,2013-04-05 18:58:00,
2013-04-05 14:59:00,48.0,1.1,29.09,South,189,5.8,5.8,14,0.00,,FEW055,0.00,VWS V14.00,2013-04-05 18:59:00,
2013-04-05 15:00:00,48.0,1.1,29.09,ESE,118,4.0,4.0,14,0.00,,FEW055,0.00,VWS V14.00,2013-04-05 19:00:00,
2013-04-05 15:03:00,48.0,1.1,29.09,SSW,193,2.7,2.7,14,0.00,,FEW055,0.00,VWS V14.00,2013-04-05 19:03:00,
2013-04-05 15:04:00,48.0,1.1,29.09,South,179,3.6,3.6,14,0.00,,FEW055,0.00,VWS V14.00,2013-04-05 19:04:00,
2013-04-05 15:05:00,48.2,1.2,29.09,ESE,119,0.0,0.0,14,0.00,,FEW055,0.00,VWS V14.00,2013-04-05 19:05:00,
2013-04-05 15:08:00,48.6,1.5,29.09,SE,141,2.7,2.7,14,0.00,,FEW055,0.00,VWS V14.00,2013-04-05 19:08:00,
2013-04-05 15:09:00,48.7,1.7,29.09,ESE,115,0.0,0.0,14,0.00,,FEW055,0.00,VWS V14.00,2013-04-05 19:09:00,
2013-04-05 15:10:00,48.7,1.7,29.09,East,91,0.0,0.0,14,0.00,,FEW055,0.00,VWS V14.00,2013-04-05 19:10:00,
2013-04-05 15:13:00,49.1,2.0,29.09,South,185,4.5,4.5,14,0.00,,FEW055,0.00,VWS V14.00,2013-04-05 19:13:00,
2013-04-05 15:22:00,48.7,1.7,29.09,ESE,108,2.7,2.7,14,0.00,,FEW055,0.00,VWS V14.00,2013-04-05 19:22:00,
2013-04-05 15:23:00,48.7,1.7,29.09,ESE,109,3.6,3.6,14,0.00,,FEW055,0.00,VWS V14.00,2013-04-05 19:23:00,
2013-04-05 15:27:00,49.1,2.0,29.09,ESE,107,3.1,3.1,14,0.00,,FEW055,0.00,VWS V14.00,2013-04-05 19:27:00,
2013-04-05 15:28:00,49.1,2.0,29.09,ESE,107,3.1,3.1,14,0.00,,FEW055,0.00,VWS V14.00,2013-04-05 19:28:00,
2013-04-05 15:33:00,48.7,1.7,29.09,ESE,111,3.6,3.6,14,0.00,,FEW055,0.00,VWS V14.00,2013-04-05 19:33:00,
2013-04-05 15:38:00,49.1,2.0,29.09,ESE,104,2.2,2.2,14,0.00,,FEW055,0.00,VWS V14.00,2013-04-05 19:38:00,
2013-04-05 15:43:00,49.1,2.0,29.09,ESE,112,3.1,3.1,14,0.00,,FEW055,0.00,VWS V14.00,2013-04-05 19:43:00,
2013-04-05 15:48:00,49.1,2.0,29.09,South,184,2.2,2.2,14,0.00,,FEW055,0.00,VWS V14.00,2013-04-05 19:48:00,
2013-04-05 15:53:00,48.7,1.7,29.09,NE,54,3.1,3.1,14,0.00,,FEW055,0.00,VWS V14.00,2013-04-05 19:53:00,
2013-04-05 15:54:00,48.6,1.5,29.09,East,100,0.0,0.0,14,0.00,,FEW055,0.00,VWS V14.00,2013-04-05 19:54:00,
2013-04-05 15:55:00,48.6,1.5,29.09,ENE,70,4.0,4.0,14,0.00,,FEW055,0.00,VWS V14.00,2013-04-05 19:55:00,
2013-04-05 15:58:00,48.2,1.2,29.09,SW,224,0.0,0.0,14,0.00,,FEW060,0.00,VWS V14.00,2013-04-05 19:58:00,
2013-04-05 15:59:00,48.2,1.2,29.09,SE,135,0.0,0.0,14,0.00,,FEW060,0.00,VWS V14.00,2013-04-05 19:59:00,
2013-04-05 16:00:00,48.4,1.4,29.09,South,181,2.7,2.7,14,0.00,,FEW060,0.00,VWS V14.00,2013-04-05 20:00:00,
2013-04-05 16:03:00,48.6,1.5,29.09,SE,139,0.0,0.0,14,0.00,,FEW060,0.00,VWS V14.00,2013-04-05 20:03:00,
2013-04-05 16:04:00,48.6,1.5,29.09,SE,145,0.0,0.0,14,0.00,,FEW060,0.00,VWS V14.00,2013-04-05 20:04:00,
2013-04-05 16:05:00,48.7,1.7,29.09,SSW,207,3.1,3.1,14,0.00,,FEW060,0.00,VWS V14.00,2013-04-05 20:05:00,
2013-04-05 16:08:00,48.7,1.7,29.09,East,96,3.1,3.1,14,0.00,,FEW060,0.00,VWS V14.00,2013-04-05 20:08:00,
2013-04-05 16:10:00,48.7,1.7,29.09,South,178,3.1,3.1,14,0.00,,FEW060,0.00,VWS V14.00,2013-04-05 20:10:00,
2013-04-05 16:13:00,48.9,1.8,29.09,South,175,3.1,3.1,14,0.00,,FEW060,0.00,VWS V14.00,2013-04-05 20:13:00,
2013-04-05 16:15:00,49.1,2.0,29.09,SSW,194,4.0,4.0,14,0.00,,FEW060,0.00,VWS V14.00,2013-04-05 20:15:00,
2013-04-05 16:18:00,48.7,1.7,29.09,SSW,207,2.2,2.2,14,0.00,,FEW060,0.00,VWS V14.00,2013-04-05 20:18:00,
2013-04-05 16:20:00,48.7,1.7,29.09,South,180,2.7,2.7,14,0.00,,FEW060,0.00,VWS V14.00,2013-04-05 20:20:00,
2013-04-05 16:23:00,48.4,1.4,29.09,SSE,164,0.0,0.0,14,0.00,,FEW060,0.00,VWS V14.00,2013-04-05 20:23:00,
2013-04-05 16:25:00,48.4,1.4,29.09,SSE,167,0.0,0.0,14,0.00,,FEW060,0.00,VWS V14.00,2013-04-05 20:25:00,
2013-04-05 16:30:00,48.6,1.5,29.09,ESE,112,0.0,0.0,14,0.00,,FEW060,0.00,VWS V14.00,2013-04-05 20:30:00,
2013-04-05 16:32:00,48.4,1.4,29.09,South,174,2.7,2.7,14,0.00,,FEW060,0.00,VWS V14.00,2013-04-05 20:32:00,
2013-04-05 16:35:00,48.2,1.2,29.09,SSW,199,3.6,3.6,14,0.00,,FEW060,0.00,VWS V14.00,2013-04-05 20:35:00,
2013-04-05 16:36:00,48.2,1.2,29.09,SSE,165,3.1,3.1,14,0.00,,FEW060,0.00,VWS V14.00,2013-04-05 20:36:00,
2013-04-05 16:37:00,47.8,1.0,29.09,ESE,109,0.0,0.0,14,0.00,,FEW060,0.00,VWS V14.00,2013-04-05 20:37:00,
2013-04-05 16:40:00,48.0,1.1,29.09,SSW,192,3.6,3.6,14,0.00,,FEW060,0.00,VWS V14.00,2013-04-05 20:40:00,
2013-04-05 16:41:00,48.0,1.1,29.09,SSW,198,3.1,3.1,14,0.00,,FEW060,0.00,VWS V14.00,2013-04-05 20:41:00,
2013-04-05 16:42:00,48.2,1.2,29.09,WSW,243,3.1,3.1,14,0.00,,FEW060,0.00,VWS V14.00,2013-04-05 20:42:00,
2013-04-05 16:45:00,47.8,1.0,29.09,South,174,4.5,4.5,14,0.00,,FEW060,0.00,VWS V14.00,2013-04-05 20:45:00,
2013-04-05 16:47:00,47.8,1.0,29.09,SSW,203,3.6,3.6,14,0.00,,FEW060,0.00,VWS V14.00,2013-04-05 20:47:00,
2013-04-05 16:50:00,47.8,1.0,29.09,ESE,120,6.3,6.3,14,0.00,,FEW060,0.00,VWS V14.00,2013-04-05 20:50:00,
2013-04-05 16:52:00,47.5,0.7,29.09,SSE,156,2.7,2.7,14,0.00,,FEW060,0.00,VWS V14.00,2013-04-05 20:52:00,
2013-04-05 16:55:00,47.1,0.4,29.09,East,85,0.0,0.0,14,0.00,,FEW060,0.00,VWS V14.00,2013-04-05 20:55:00,
2013-04-05 16:56:00,47.1,0.4,29.09,SE,141,3.1,3.1,14,0.00,,FEW060,0.00,VWS V14.00,2013-04-05 20:56:00,
2013-04-05 16:57:00,47.1,0.4,29.09,SE,133,0.0,0.0,14,0.00,,FEW060,0.00,VWS V14.00,2013-04-05 20:57:00,
2013-04-05 17:01:00,46.8,0.1,29.09,SE,137,2.2,2.2,14,0.00,,FEW060,0.00,VWS V14.00,2013-04-05 21:01:00,
2013-04-05 17:02:00,46.6,-0.1,29.09,ESE,114,2.7,2.7,14,0.00,,FEW060,0.00,VWS V14.00,2013-04-05 21:02:00,
2013-04-05 17:03:00,46.6,-0.1,29.09,SE,133,0.0,0.0,14,0.00,,FEW060,0.00,VWS V14.00,2013-04-05 21:03:00,
2013-04-05 17:06:00,46.4,-0.2,29.09,South,185,2.2,2.2,14,0.00,,FEW060,0.00,VWS V14.00,2013-04-05 21:06:00,
2013-04-05 17:07:00,46.4,-0.2,29.09,South,170,3.1,3.1,14,0.00,,FEW060,0.00,VWS V14.00,2013-04-05 21:07:00,
2013-04-05 17:08:00,46.6,-0.1,29.09,SSW,207,3.1,3.1,14,0.00,,FEW060,0.00,VWS V14.00,2013-04-05 21:08:00,
2013-04-05 17:11:00,46.4,-0.2,29.09,SE,124,0.0,0.0,14,0.00,,FEW060,0.00,VWS V14.00,2013-04-05 21:11:00,
2013-04-05 17:12:00,46.4,-0.2,29.09,ESE,119,0.0,0.0,14,0.00,,FEW060,0.00,VWS V14.00,2013-04-05 21:12:00,
2013-04-05 17:13:00,46.4,-0.2,29.09,SSW,194,3.6,3.6,14,0.00,,FEW060,0.00,VWS V14.00,2013-04-05 21:13:00,
2013-04-05 17:17:00,46.4,-0.2,29.09,East,99,3.6,3.6,14,0.00,,FEW060,0.00,VWS V14.00,2013-04-05 21:17:00,
2013-04-05 17:18:00,46.4,-0.2,29.09,ESE,110,4.9,4.9,14,0.00,,FEW060,0.00,VWS V14.00,2013-04-05 21:18:00,
2013-04-05 17:22:00,46.2,1.1,29.09,SSW,206,5.4,5.4,15,0.00,,FEW060,0.00,VWS V14.00,2013-04-05 21:22:00,
2013-04-05 17:23:00,46.2,1.1,29.09,SE,127,2.2,2.2,15,0.00,,FEW060,0.00,VWS V14.00,2013-04-05 21:23:00,
2013-04-05 17:27:00,46.0,1.0,29.09,SE,138,0.0,0.0,15,0.00,,FEW060,0.00,VWS V14.00,2013-04-05 21:27:00,
2013-04-05 17:28:00,46.0,1.0,29.09,SSW,192,3.1,3.1,15,0.00,,FEW060,0.00,VWS V14.00,2013-04-05 21:28:00,
2013-04-05 17:29:00,46.0,1.0,29.09,SSE,149,2.2,2.2,15,0.00,,FEW060,0.00,VWS V14.00,2013-04-05 21:29:00,
2013-04-05 17:32:00,45.9,0.8,29.09,South,170,5.4,5.4,15,0.00,,FEW060,0.00,VWS V14.00,2013-04-05 21:32:00,
2013-04-05 17:33:00,45.9,0.8,29.09,South,170,5.4,5.4,15,0.00,,FEW060,0.00,VWS V14.00,2013-04-05 21:33:00,
2013-04-05 17:34:00,45.9,0.8,29.09,SE,125,0.0,0.0,15,0.00,,FEW060,0.00,VWS V14.00,2013-04-05 21:34:00,
2013-04-05 17:38:00,45.7,0.7,29.09,South,181,0.0,0.0,15,0.00,,FEW060,0.00,VWS V14.00,2013-04-05 21:38:00,
2013-04-05 17:39:00,45.9,0.8,29.09,South,178,0.0,0.0,15,0.00,,FEW060,0.00,VWS V14.00,2013-04-05 21:39:00,
2013-04-05 17:40:00,45.9,0.8,29.09,SSE,168,0.0,0.0,15,0.00,,FEW060,0.00,VWS V14.00,2013-04-05 21:40:00,
2013-04-05 17:43:00,45.9,0.8,29.09,ESE,110,4.9,4.9,15,0.00,,FEW060,0.00,VWS V14.00,2013-04-05 21:43:00,
2013-04-05 17:44:00,45.9,0.8,29.09,ESE,107,2.7,2.7,15,0.00,,FEW060,0.00,VWS V14.00,2013-04-05 21:44:00,
2013-04-05 17:45:00,45.7,0.7,29.09,SE,143,0.0,0.0,15,0.00,,FEW060,0.00,VWS V14.00,2013-04-05 21:45:00,
2013-04-05 17:48:00,45.7,0.7,29.09,SSE,162,3.6,3.6,15,0.00,,FEW060,0.00,VWS V14.00,2013-04-05 21:48:00,
2013-04-05 17:49:00,45.7,0.7,29.09,SSW,198,4.0,4.0,15,0.00,,FEW060,0.00,VWS V14.00,2013-04-05 21:49:00,
2013-04-05 17:52:00,45.5,0.6,29.09,SSW,206,5.8,5.8,15,0.00,,FEW060,0.00,VWS V14.00,2013-04-05 21:52:00,
2013-04-05 17:53:00,45.5,0.6,29.09,East,100,5.8,5.8,15,0.00,,FEW060,0.00,VWS V14.00,2013-04-05 21:53:00,
2013-04-05 17:54:00,45.3,0.4,29.09,ESE,118,4.9,4.9,15,0.00,,FEW060,0.00,VWS V14.00,2013-04-05 21:54:00,
2013-04-05 17:55:00,45.3,0.4,29.09,SE,127,2.2,2.2,15,0.00,,FEW060,0.00,VWS V14.00,2013-04-05 21:55:00,
2013-04-05 17:57:00,45.1,0.3,29.09,SSW,208,3.1,3.1,15,0.00,,FEW060,0.00,VWS V14.00,2013-04-05 21:57:00,
2013-04-05 17:58:00,45.1,0.3,29.09,South,177,2.2,2.2,15,0.00,,SCT250,0.00,VWS V14.00,2013-04-05 21:58:00,
2013-04-05 18:00:00,45.1,0.3,29.09,South,189,0.0,0.0,15,0.00,,SCT250,0.00,VWS V14.00,2013-04-05 22:00:00,
2013-04-05 18:02:00,45.1,0.3,29.09,SSW,195,3.6,3.6,15,0.00,,SCT250,0.00,VWS V14.00,2013-04-05 22:02:00,
2013-04-05 18:03:00,45.1,0.3,29.09,South,180,2.7,2.7,15,0.00,,SCT250,0.00,VWS V14.00,2013-04-05 22:03:00,
2013-04-05 18:05:00,45.1,0.3,29.09,East,79,5.4,5.4,15,0.00,,SCT250,0.00,VWS V14.00,2013-04-05 22:05:00,
2013-04-05 18:07:00,45.1,0.3,29.09,East,98,2.7,2.7,15,0.00,,SCT250,0.00,VWS V14.00,2013-04-05 22:07:00,
2013-04-05 18:09:00,45.1,0.3,29.09,ESE,116,4.0,4.0,15,0.00,,SCT250,0.00,VWS V14.00,2013-04-05 22:09:00,
2013-04-05 18:10:00,45.1,0.3,29.09,South,185,3.1,3.1,15,0.00,,SCT250,0.00,VWS V14.00,2013-04-05 22:10:00,
2013-04-05 18:13:00,45.1,0.3,29.09,SW,230,2.7,2.7,15,0.00,,SCT250,0.00,VWS V14.00,2013-04-05 22:13:00,
2013-04-05 18:14:00,45.1,0.3,29.09,East,97,2.2,2.2,15,0.00,,SCT250,0.00,VWS V14.00,2013-04-05 22:14:00,
2013-04-05 18:15:00,45.1,0.3,29.09,SE,138,0.0,0.0,15,0.00,,SCT250,0.00,VWS V14.00,2013-04-05 22:15:00,
2013-04-05 18:18:00,45.1,0.3,29.09,ESE,104,3.1,3.1,15,0.00,,SCT250,0.00,VWS V14.00,2013-04-05 22:18:00,
2013-04-05 18:19:00,45.3,0.4,29.09,SSE,160,2.2,2.2,15,0.00,,SCT250,0.00,VWS V14.00,2013-04-05 22:19:00,
2013-04-05 18:20:00,45.3,0.4,29.09,ESE,122,0.0,0.0,15,0.00,,SCT250,0.00,VWS V14.00,2013-04-05 22:20:00,
2013-04-05 18:23:00,45.3,0.4,29.09,South,176,2.2,2.2,15,0.00,,SCT250,0.00,VWS V14.00,2013-04-05 22:23:00,
2013-04-05 18:24:00,45.3,0.4,29.09,WSW,241,0.0,0.0,15,0.00,,SCT250,0.00,VWS V14.00,2013-04-05 22:24:00,
2013-04-05 18:25:00,45.3,0.4,29.09,WSW,242,0.0,0.0,15,0.00,,SCT250,0.00,VWS V14.00,2013-04-05 22:25:00,
2013-04-05 18:28:00,45.3,0.4,29.09,SSW,203,0.0,0.0,15,0.00,,SCT250,0.00,VWS V14.00,2013-04-05 22:28:00,
2013-04-05 18:29:00,45.3,0.4,29.09,ESE,111,0.0,0.0,15,0.00,,SCT250,0.00,VWS V14.00,2013-04-05 22:29:00,
2013-04-05 18:30:00,45.3,0.4,29.09,ESE,115,2.7,2.7,15,0.00,,SCT250,0.00,VWS V14.00,2013-04-05 22:30:00,
2013-04-05 18:33:00,45.3,0.4,29.09,ESE,103,0.0,0.0,15,0.00,,SCT250,0.00,VWS V14.00,2013-04-05 22:33:00,
2013-04-05 18:34:00,45.3,0.4,29.09,SSW,196,0.0,0.0,15,0.00,,SCT250,0.00,VWS V14.00,2013-04-05 22:34:00,
2013-04-05 18:35:00,45.3,0.4,29.09,ESE,102,5.8,5.8,15,0.00,,SCT250,0.00,VWS V14.00,2013-04-05 22:35:00,
2013-04-05 18:39:00,45.1,0.3,29.09,South,188,2.2,2.2,15,0.00,,SCT250,0.00,VWS V14.00,2013-04-05 22:39:00,
2013-04-05 18:40:00,45.0,0.1,29.09,South,185,0.0,0.0,15,0.00,,SCT250,0.00,VWS V14.00,2013-04-05 22:40:00,
2013-04-05 18:41:00,45.0,0.1,29.09,South,186,0.0,0.0,15,0.00,,SCT250,0.00,VWS V14.00,2013-04-05 22:41:00,
2013-04-05 18:44:00,44.6,-4.9,29.09,South,187,0.0,0.0,12,0.00,,SCT250,0.00,VWS V14.00,2013-04-05 22:44:00,
2013-04-05 18:45:00,44.4,-3.3,29.09,SW,217,2.7,2.7,13,0.00,,SCT250,0.00,VWS V14.00,2013-04-05 22:45:00,
2013-04-05 18:46:00,44.2,-3.5,29.09,SSW,200,2.2,2.2,13,0.00,,SCT250,0.00,VWS V14.00,2013-04-05 22:46:00,
2013-04-05 18:49:00,43.7,-3.9,29.09,SSE,161,0.0,0.0,13,0.00,,SCT250,0.00,VWS V14.00,2013-04-05 22:49:00,
2013-04-05 18:50:00,43.7,-3.9,29.09,SSW,200,0.0,0.0,13,0.00,,SCT250,0.00,VWS V14.00,2013-04-05 22:50:00,
2013-04-05 18:52:00,43.5,-4.1,29.09,South,181,0.0,0.0,13,0.00,,SCT250,0.00,VWS V14.00,2013-04-05 22:52:00,
2013-04-05 18:54:00,43.3,-4.2,29.09,South,190,0.0,0.0,13,0.00,,SCT250,0.00,VWS V14.00,2013-04-05 22:54:00,
2013-04-05 18:55:00,43.3,-4.2,29.09,East,81,2.7,2.7,13,0.00,,SCT250,0.00,VWS V14.00,2013-04-05 22:55:00,
2013-04-05 18:57:00,43.2,-4.3,29.09,South,177,0.0,0.0,13,0.00,,SCT250,0.00,VWS V14.00,2013-04-05 22:57:00,
2013-04-05 18:59:00,43.0,-4.5,29.09,ESE,103,4.5,4.5,13,0.00,,CLR,0.00,VWS V14.00,2013-04-05 22:59:00,
2013-04-05 19:00:00,43.0,-4.5,29.09,SE,126,0.0,0.0,13,0.00,,CLR,0.00,VWS V14.00,2013-04-05 23:00:00,
2013-04-05 19:01:00,42.8,-4.6,29.09,ESE,102,0.0,0.0,13,0.00,,CLR,0.00,VWS V14.00,2013-04-05 23:01:00,
2013-04-05 19:02:00,42.8,-4.6,29.09,ESE,103,0.0,0.0,13,0.00,,CLR,0.00,VWS V14.00,2013-04-05 23:02:00,
2013-04-05 19:04:00,42.8,-4.6,29.09,ESE,121,0.0,0.0,13,0.00,,CLR,0.00,VWS V14.00,2013-04-05 23:04:00,
2013-04-05 19:06:00,42.6,-4.8,29.09,South,172,2.7,2.7,13,0.00,,CLR,0.00,VWS V14.00,2013-04-05 23:06:00,
2013-04-05 19:07:00,42.6,-4.8,29.09,South,181,0.0,0.0,13,0.00,,CLR,0.00,VWS V14.00,2013-04-05 23:07:00,
2013-04-05 19:09:00,42.4,-4.9,29.09,South,175,0.0,0.0,13,0.00,,CLR,0.00,VWS V14.00,2013-04-05 23:09:00,
2013-04-05 19:11:00,42.4,-4.9,29.09,WSW,238,0.0,0.0,13,0.00,,CLR,0.00,VWS V14.00,2013-04-05 23:11:00,
2013-04-05 19:12:00,42.3,-5.1,29.09,WSW,249,0.0,0.0,13,0.00,,CLR,0.00,VWS V14.00,2013-04-05 23:12:00,
2013-04-05 19:14:00,42.3,-5.1,29.09,East,85,0.0,0.0,13,0.00,,CLR,0.00,VWS V14.00,2013-04-05 23:14:00,
2013-04-05 19:16:00,42.1,-5.2,29.09,ESE,118,0.0,0.0,13,0.00,,CLR,0.00,VWS V14.00,2013-04-05 23:16:00,
2013-04-05 19:17:00,42.1,-5.2,29.09,ESE,118,0.0,0.0,13,0.00,,CLR,0.00,VWS V14.00,2013-04-05 23:17:00,
2013-04-05 19:19:00,42.1,-5.2,29.09,SE,128,0.0,0.0,13,0.00,,CLR,0.00,VWS V14.00,2013-04-05 23:19:00,
2013-04-05 19:22:00,41.9,-5.3,29.09,East,100,0.0,0.0,13,0.00,,CLR,0.00,VWS V14.00,2013-04-05 23:22:00,
2013-04-05 19:24:00,41.7,-5.5,29.09,South,190,0.0,0.0,13,0.00,,CLR,0.00,VWS V14.00,2013-04-05 23:24:00,
2013-04-05 19:27:00,41.7,-5.5,29.09,South,176,0.0,0.0,13,0.00,,CLR,0.00,VWS V14.00,2013-04-05 23:27:00,
2013-04-05 19:30:00,41.7,-5.5,29.09,South,176,0.0,0.0,13,0.00,,CLR,0.00,VWS V14.00,2013-04-05 23:30:00,
2013-04-05 19:32:00,41.5,-5.6,29.09,South,175,0.0,0.0,13,0.00,,CLR,0.00,VWS V14.00,2013-04-05 23:32:00,
2013-04-05 19:35:00,41.5,-5.6,29.09,South,176,0.0,0.0,13,0.00,,CLR,0.00,VWS V14.00,2013-04-05 23:35:00,
2013-04-05 19:37:00,41.4,-5.8,29.09,South,175,0.0,0.0,13,0.00,,CLR,0.00,VWS V14.00,2013-04-05 23:37:00,
2013-04-05 19:38:00,41.4,-5.8,29.09,South,176,0.0,0.0,13,0.00,,CLR,0.00,VWS V14.00,2013-04-05 23:38:00,
2013-04-05 19:40:00,41.2,-5.9,29.09,South,176,0.0,0.0,13,0.00,,CLR,0.00,VWS V14.00,2013-04-05 23:40:00,
2013-04-05 19:42:00,41.2,-5.9,29.09,South,187,0.0,0.0,13,0.00,,CLR,0.00,VWS V14.00,2013-04-05 23:42:00,
2013-04-05 19:43:00,41.2,-5.9,29.09,South,188,0.0,0.0,13,0.00,,CLR,0.00,VWS V14.00,2013-04-05 23:43:00,
2013-04-05 19:45:00,41.0,-6.1,29.09,South,170,0.0,0.0,13,0.00,,CLR,0.00,VWS V14.00,2013-04-05 23:45:00,
2013-04-05 19:47:00,41.0,-6.1,29.09,South,175,0.0,0.0,13,0.00,,CLR,0.00,VWS V14.00,2013-04-05 23:47:00,
2013-04-05 19:48:00,41.0,-6.1,29.09,South,176,0.0,0.0,13,0.00,,CLR,0.00,VWS V14.00,2013-04-05 23:48:00,
2013-04-05 19:50:00,40.8,-6.2,29.09,South,176,0.0,0.0,13,0.00,,CLR,0.00,VWS V14.00,2013-04-05 23:50:00,
2013-04-05 19:52:00,40.6,-6.4,29.09,South,176,0.0,0.0,13,0.00,,CLR,0.00,VWS V14.00,2013-04-05 23:52:00,
2013-04-05 19:53:00,40.6,-6.4,29.09,South,175,0.0,0.0,13,0.00,,CLR,0.00,VWS V14.00,2013-04-05 23:53:00,
2013-04-05 19:55:00,40.5,-6.5,29.09,SSW,207,0.0,0.0,13,0.00,,CLR,0.00,VWS V14.00,2013-04-05 23:55:00,
2013-04-05 19:58:00,40.5,-6.5,29.09,South,180,0.0,0.0,13,0.00,,CLR,0.00,VWS V14.00,2013-04-05 23:58:00,
2013-04-05 20:00:00,40.3,-6.7,29.09,South,180,0.0,0.0,13,0.00,,OVC250,0.00,VWS V14.00,2013-04-06 00:00:00,
2013-04-05 20:03:00,40.1,-6.8,29.09,South,180,0.0,0.0,13,0.00,,OVC250,0.00,VWS V14.00,2013-04-06 00:03:00,
2013-04-05 20:05:00,39.9,-6.9,29.09,South,180,0.0,0.0,13,0.00,,OVC250,0.00,VWS V14.00,2013-04-06 00:05:00,
2013-04-05 20:08:00,39.9,-6.9,29.09,South,180,0.0,0.0,13,0.00,,OVC250,0.00,VWS V14.00,2013-04-06 00:08:00,
2013-04-05 20:10:00,39.7,-7.1,29.12,South,180,0.0,0.0,13,0.00,,OVC250,0.00,VWS V14.00,2013-04-06 00:10:00,
2013-04-05 20:13:00,39.6,-7.2,29.12,South,180,0.0,0.0,13,0.00,,OVC250,0.00,VWS V14.00,2013-04-06 00:13:00,
2013-04-05 20:14:00,39.6,-7.2,29.12,South,180,0.0,0.0,13,0.00,,OVC250,0.00,VWS V14.00,2013-04-06 00:14:00,
2013-04-05 20:16:00,39.6,-7.2,29.12,South,179,0.0,0.0,13,0.00,,OVC250,0.00,VWS V14.00,2013-04-06 00:16:00,
2013-04-05 20:18:00,39.4,-7.4,29.12,South,180,0.0,0.0,13,0.00,,OVC250,0.00,VWS V14.00,2013-04-06 00:18:00,
2013-04-05 20:19:00,39.4,-7.4,29.12,South,180,0.0,0.0,13,0.00,,OVC250,0.00,VWS V14.00,2013-04-06 00:19:00,
2013-04-05 20:20:00,39.4,-7.4,29.12,South,179,0.0,0.0,13,0.00,,OVC250,0.00,VWS V14.00,2013-04-06 00:20:00,
2013-04-05 20:21:00,39.2,-7.5,29.12,South,180,0.0,0.0,13,0.00,,OVC250,0.00,VWS V14.00,2013-04-06 00:21:00,
2013-04-05 20:23:00,39.2,-7.5,29.12,South,180,0.0,0.0,13,0.00,,OVC250,0.00,VWS V14.00,2013-04-06 00:23:00,
2013-04-05 20:24:00,39.2,-7.5,29.12,South,179,0.0,0.0,13,0.00,,OVC250,0.00,VWS V14.00,2013-04-06 00:24:00,
2013-04-05 20:25:00,39.2,-7.5,29.12,South,180,0.0,0.0,13,0.00,,OVC250,0.00,VWS V14.00,2013-04-06 00:25:00,
2013-04-05 20:26:00,39.2,-7.5,29.12,North,350,0.0,0.0,13,0.00,,OVC250,0.00,VWS V14.00,2013-04-06 00:26:00,
2013-04-05 20:28:00,39.0,-6.1,29.12,NNW,331,0.0,0.0,14,0.00,,OVC250,0.00,VWS V14.00,2013-04-06 00:28:00,
2013-04-05 20:29:00,39.0,-6.1,29.12,West,275,0.0,0.0,14,0.00,,OVC250,0.00,VWS V14.00,2013-04-06 00:29:00,
2013-04-05 20:30:00,39.0,-6.1,29.12,NW,305,0.0,0.0,14,0.00,,OVC250,0.00,VWS V14.00,2013-04-06 00:30:00,
2013-04-05 20:31:00,38.8,-3.5,29.15,NNW,327,0.0,0.0,16,0.00,,OVC250,0.00,VWS V14.00,2013-04-06 00:31:00,
2013-04-05 20:33:00,38.7,-3.7,29.15,WNW,293,0.0,0.0,16,0.00,,OVC250,0.00,VWS V14.00,2013-04-06 00:33:00,
2013-04-05 20:34:00,38.7,-3.7,29.15,WSW,239,0.0,0.0,16,0.00,,OVC250,0.00,VWS V14.00,2013-04-06 00:34:00,
2013-04-05 20:35:00,38.7,-3.7,29.15,WSW,251,0.0,0.0,16,0.00,,OVC250,0.00,VWS V14.00,2013-04-06 00:35:00,
2013-04-05 20:36:00,38.5,-3.8,29.15,NW,322,0.0,0.0,16,0.00,,OVC250,0.00,VWS V14.00,2013-04-06 00:36:00,
2013-04-05 20:38:00,38.1,-4.1,29.15,WNW,286,0.0,0.0,16,0.00,,OVC250,0.00,VWS V14.00,2013-04-06 00:38:00,
2013-04-05 20:40:00,38.1,-4.1,29.15,West,259,0.0,0.0,16,0.00,,OVC250,0.00,VWS V14.00,2013-04-06 00:40:00,
2013-04-05 20:41:00,37.9,-4.2,29.15,West,273,0.0,0.0,16,0.00,,OVC250,0.00,VWS V14.00,2013-04-06 00:41:00,
2013-04-05 20:43:00,37.8,-4.4,29.15,NNW,342,0.0,0.0,16,0.00,,OVC250,0.00,VWS V14.00,2013-04-06 00:43:00,
2013-04-05 20:45:00,37.8,-4.4,29.15,WNW,295,2.2,2.2,16,0.00,,OVC250,0.00,VWS V14.00,2013-04-06 00:45:00,
2013-04-05 20:47:00,37.6,-4.5,29.15,SW,233,0.0,0.0,16,0.00,,OVC250,0.00,VWS V14.00,2013-04-06 00:47:00,
2013-04-05 20:48:00,37.4,-4.7,29.15,NW,321,0.0,0.0,16,0.00,,OVC250,0.00,VWS V14.00,2013-04-06 00:48:00,
2013-04-05 20:50:00,37.2,-3.6,29.15,WSW,246,0.0,0.0,17,0.00,,OVC250,0.00,VWS V14.00,2013-04-06 00:50:00,
2013-04-05 20:52:00,37.0,-3.7,29.15,NNW,339,0.0,0.0,17,0.00,,OVC250,0.00,VWS V14.00,2013-04-06 00:52:00,
2013-04-05 20:54:00,36.9,-1.5,29.15,NW,312,0.0,0.0,19,0.00,,OVC250,0.00,VWS V14.00,2013-04-06 00:54:00,
2013-04-05 20:56:00,36.7,-1.7,29.15,NW,308,0.0,0.0,19,0.00,,OVC250,0.00,VWS V14.00,2013-04-06 00:56:00,
2013-04-05 20:57:00,36.7,-1.7,29.15,WNW,298,2.2,2.2,19,0.00,,OVC250,0.00,VWS V14.00,2013-04-06 00:57:00,
2013-04-05 21:00:00,36.5,-1.8,29.15,NW,325,0.0,0.0,19,0.00,,OVC250,0.00,VWS V14.00,2013-04-06 01:00:00,
2013-04-05 21:01:00,36.5,-1.8,29.15,NNW,327,0.0,0.0,19,0.00,,OVC250,0.00,VWS V14.00,2013-04-06 01:01:00,
2013-04-05 21:02:00,36.3,-2.0,29.15,WSW,252,0.0,0.0,19,0.00,,OVC250,0.00,VWS V14.00,2013-04-06 01:02:00,
2013-04-05 21:03:00,36.3,-2.0,29.15,WSW,241,0.0,0.0,19,0.00,,OVC250,0.00,VWS V14.00,2013-04-06 01:03:00,
2013-04-05 21:05:00,36.1,1.0,29.15,WSW,252,0.0,0.0,22,0.00,,OVC250,0.00,VWS V14.00,2013-04-06 01:05:00,
2013-04-05 21:07:00,36.0,0.8,29.15,West,273,0.0,0.0,22,0.00,,OVC250,0.00,VWS V14.00,2013-04-06 01:07:00,
2013-04-05 21:08:00,36.0,0.8,29.15,WNW,288,0.0,0.0,22,0.00,,OVC250,0.00,VWS V14.00,2013-04-06 01:08:00,
2013-04-05 21:10:00,35.8,0.7,29.15,NW,305,0.0,0.0,22,0.00,,OVC250,0.00,VWS V14.00,2013-04-06 01:10:00,
2013-04-05 21:12:00,35.6,0.5,29.15,West,265,0.0,0.0,22,0.00,,OVC250,0.00,VWS V14.00,2013-04-06 01:12:00,
2013-04-05 21:13:00,35.6,0.5,29.15,WSW,239,0.0,0.0,22,0.00,,OVC250,0.00,VWS V14.00,2013-04-06 01:13:00,
2013-04-05 21:15:00,35.4,0.4,29.15,NW,320,0.0,0.0,22,0.00,,OVC250,0.00,VWS V14.00,2013-04-06 01:15:00,
2013-04-05 21:17:00,35.4,0.4,29.15,NNW,339,0.0,0.0,22,0.00,,OVC250,0.00,VWS V14.00,2013-04-06 01:17:00,
2013-04-05 21:18:00,35.2,0.2,29.15,NNW,340,0.0,0.0,22,0.00,,OVC250,0.00,VWS V14.00,2013-04-06 01:18:00,
2013-04-05 21:20:00,35.1,0.1,29.15,West,281,0.0,0.0,22,0.00,,OVC250,0.00,VWS V14.00,2013-04-06 01:20:00,
2013-04-05 21:22:00,35.1,0.1,29.15,West,281,0.0,0.0,22,0.00,,OVC250,0.00,VWS V14.00,2013-04-06 01:22:00,
2013-04-05 21:23:00,35.1,0.1,29.15,West,281,0.0,0.0,22,0.00,,OVC250,0.00,VWS V14.00,2013-04-06 01:23:00,
2013-04-05 21:25:00,34.9,-0.1,29.15,West,264,0.0,0.0,22,0.00,,OVC250,0.00,VWS V14.00,2013-04-06 01:25:00,
2013-04-05 21:27:00,34.9,-0.1,29.15,NNW,344,0.0,0.0,22,0.00,,OVC250,0.00,VWS V14.00,2013-04-06 01:27:00,
2013-04-05 21:28:00,34.7,-0.2,29.15,NW,315,0.0,0.0,22,0.00,,OVC250,0.00,VWS V14.00,2013-04-06 01:28:00,
2013-04-05 21:30:00,34.7,-0.2,29.15,North,1,0.0,0.0,22,0.00,,OVC250,0.00,VWS V14.00,2013-04-06 01:30:00,
2013-04-05 21:32:00,34.5,-0.4,29.15,NNW,343,0.0,0.0,22,0.00,,OVC250,0.00,VWS V14.00,2013-04-06 01:32:00,
2013-04-05 21:33:00,34.5,-0.4,29.15,North,357,0.0,0.0,22,0.00,,OVC250,0.00,VWS V14.00,2013-04-06 01:33:00,
2013-04-05 21:35:00,34.5,-0.4,29.15,NW,322,0.0,0.0,22,0.00,,OVC250,0.00,VWS V14.00,2013-04-06 01:35:00,
2013-04-05 21:37:00,34.3,2.2,29.15,West,260,0.0,0.0,25,0.00,,OVC250,0.00,VWS V14.00,2013-04-06 01:37:00,
2013-04-05 21:38:00,34.3,2.2,29.15,WSW,250,0.0,0.0,25,0.00,,OVC250,0.00,VWS V14.00,2013-04-06 01:38:00,
2013-04-05 21:40:00,34.3,2.2,29.15,WSW,249,0.0,0.0,25,0.00,,OVC250,0.00,VWS V14.00,2013-04-06 01:40:00,
2013-04-05 21:41:00,34.3,2.2,29.15,West,260,0.0,0.0,25,0.00,,OVC250,0.00,VWS V14.00,2013-04-06 01:41:00,
2013-04-05 21:42:00,34.2,2.0,29.15,West,260,0.0,0.0,25,0.00,,OVC250,0.00,VWS V14.00,2013-04-06 01:42:00,
2013-04-05 21:45:00,34.0,1.9,29.15,North,1,0.0,0.0,25,0.00,,OVC250,0.00,VWS V14.00,2013-04-06 01:45:00,
2013-04-05 21:47:00,34.0,1.9,29.15,NNW,329,0.0,0.0,25,0.00,,OVC250,0.00,VWS V14.00,2013-04-06 01:47:00,
2013-04-05 21:50:00,33.8,1.7,29.15,NNW,328,0.0,0.0,25,0.00,,OVC250,0.00,VWS V14.00,2013-04-06 01:50:00,
2013-04-05 21:52:00,33.8,1.7,29.15,NNW,329,0.0,0.0,25,0.00,,OVC250,0.00,VWS V14.00,2013-04-06 01:52:00,
2013-04-05 21:55:00,33.6,1.6,29.15,NW,322,0.0,0.0,25,0.00,,OVC250,0.00,VWS V14.00,2013-04-06 01:55:00,
2013-04-05 21:57:00,33.6,1.6,29.15,NW,322,0.0,0.0,25,0.00,,OVC250,0.00,VWS V14.00,2013-04-06 01:57:00,
2013-04-05 22:00:00,33.3,3.7,29.15,NNW,335,0.0,0.0,28,0.00,,OVC250,0.00,VWS V14.00,2013-04-06 02:00:00,
2013-04-05 22:02:00,33.3,3.7,29.15,NNW,334,0.0,0.0,28,0.00,,OVC250,0.00,VWS V14.00,2013-04-06 02:02:00,
2013-04-05 22:03:00,33.3,3.7,29.15,NNW,336,0.0,0.0,28,0.00,,OVC250,0.00,VWS V14.00,2013-04-06 02:03:00,
2013-04-05 22:05:00,33.1,3.5,29.15,NW,311,0.0,0.0,28,0.00,,OVC250,0.00,VWS V14.00,2013-04-06 02:05:00,
2013-04-05 22:07:00,33.1,3.5,29.15,NW,311,0.0,0.0,28,0.00,,OVC250,0.00,VWS V14.00,2013-04-06 02:07:00,
2013-04-05 22:08:00,33.1,3.5,29.15,NNW,327,0.0,0.0,28,0.00,,OVC250,0.00,VWS V14.00,2013-04-06 02:08:00,
2013-04-05 22:11:00,32.9,3.4,29.15,NW,324,0.0,0.0,28,0.00,,OVC250,0.00,VWS V14.00,2013-04-06 02:11:00,
2013-04-05 22:12:00,32.9,3.4,29.15,NW,324,0.0,0.0,28,0.00,,OVC250,0.00,VWS V14.00,2013-04-06 02:12:00,
2013-04-05 22:13:00,32.9,3.4,29.15,NW,323,0.0,0.0,28,0.00,,OVC250,0.00,VWS V14.00,2013-04-06 02:13:00,
2013-04-05 22:16:00,32.7,4.7,29.15,SW,235,0.0,0.0,30,0.00,,OVC250,0.00,VWS V14.00,2013-04-06 02:16:00,
2013-04-05 22:18:00,32.7,4.7,29.15,SW,236,0.0,0.0,30,0.00,,OVC250,0.00,VWS V14.00,2013-04-06 02:18:00,
2013-04-05 22:21:00,32.5,4.6,29.15,SW,236,0.0,0.0,30,0.00,,OVC250,0.00,VWS V14.00,2013-04-06 02:21:00,
2013-04-05 22:23:00,32.5,4.6,29.15,SW,235,0.0,0.0,30,0.00,,OVC250,0.00,VWS V14.00,2013-04-06 02:23:00,
2013-04-05 22:27:00,32.4,4.4,29.15,WSW,237,0.0,0.0,30,0.00,,OVC250,0.00,VWS V14.00,2013-04-06 02:27:00,
2013-04-05 22:28:00,32.4,4.4,29.18,SW,236,0.0,0.0,30,0.00,,OVC250,0.00,VWS V14.00,2013-04-06 02:28:00,
2013-04-05 22:32:00,32.2,4.2,29.18,WSW,237,0.0,0.0,30,0.00,,OVC250,0.00,VWS V14.00,2013-04-06 02:32:00,
2013-04-05 22:33:00,32.2,4.2,29.18,WSW,237,0.0,0.0,30,0.00,,OVC250,0.00,VWS V14.00,2013-04-06 02:33:00,
2013-04-05 22:37:00,32.0,4.8,29.18,WSW,237,0.0,0.0,31,0.00,,OVC250,0.00,VWS V14.00,2013-04-06 02:37:00,
2013-04-05 22:38:00,32.0,4.8,29.18,SW,236,0.0,0.0,31,0.00,,OVC250,0.00,VWS V14.00,2013-04-06 02:38:00,
2013-04-05 22:42:00,31.8,4.6,29.18,SW,236,0.0,0.0,31,0.00,,OVC250,0.00,VWS V14.00,2013-04-06 02:42:00,
2013-04-05 22:43:00,31.8,4.6,29.18,WSW,237,0.0,0.0,31,0.00,,OVC250,0.00,VWS V14.00,2013-04-06 02:43:00,
2013-04-05 22:47:00,31.5,4.3,29.18,WSW,237,0.0,0.0,31,0.00,,OVC250,0.00,VWS V14.00,2013-04-06 02:47:00,
2013-04-05 22:48:00,31.5,4.3,29.18,WSW,237,0.0,0.0,31,0.00,,OVC250,0.00,VWS V14.00,2013-04-06 02:48:00,
2013-04-05 22:49:00,31.5,4.3,29.18,WSW,237,0.0,0.0,31,0.00,,OVC250,0.00,VWS V14.00,2013-04-06 02:49:00,
2013-04-05 22:52:00,31.3,4.2,29.18,SW,236,0.0,0.0,31,0.00,,OVC250,0.00,VWS V14.00,2013-04-06 02:52:00,
2013-04-05 22:53:00,31.3,4.2,29.18,SW,236,0.0,0.0,31,0.00,,OVC250,0.00,VWS V14.00,2013-04-06 02:53:00,
2013-04-05 22:54:00,31.3,4.2,29.18,WSW,237,0.0,0.0,31,0.00,,OVC250,0.00,VWS V14.00,2013-04-06 02:54:00,
2013-04-05 22:58:00,31.1,4.0,29.18,WNW,300,0.0,0.0,31,0.00,,OVC250,0.00,VWS V14.00,2013-04-06 02:58:00,
2013-04-05 22:59:00,31.1,4.0,29.18,WNW,299,0.0,0.0,31,0.00,,OVC250,0.00,VWS V14.00,2013-04-06 02:59:00,
2013-04-05 23:03:00,31.1,4.0,29.18,WNW,299,0.0,0.0,31,0.00,,BKN250,0.00,VWS V14.00,2013-04-06 03:03:00,
2013-04-05 23:05:00,30.9,3.8,29.18,WNW,299,0.0,0.0,31,0.00,,BKN250,0.00,VWS V14.00,2013-04-06 03:05:00,
2013-04-05 23:06:00,30.9,3.8,29.18,WNW,299,0.0,0.0,31,0.00,,BKN250,0.00,VWS V14.00,2013-04-06 03:06:00,
2013-04-05 23:08:00,30.9,3.8,29.18,WNW,285,0.0,0.0,31,0.00,,BKN250,0.00,VWS V14.00,2013-04-06 03:08:00,
2013-04-05 23:10:00,30.7,4.4,29.18,NW,322,0.0,0.0,32,0.00,,BKN250,0.00,VWS V14.00,2013-04-06 03:10:00,
2013-04-05 23:12:00,30.7,4.4,29.18,NW,322,0.0,0.0,32,0.00,,BKN250,0.00,VWS V14.00,2013-04-06 03:12:00,
2013-04-05 23:13:00,30.7,4.4,29.18,NW,322,0.0,0.0,32,0.00,,BKN250,0.00,VWS V14.00,2013-04-06 03:13:00,
2013-04-05 23:14:00,30.7,4.4,29.18,NW,322,0.0,0.0,32,0.00,,BKN250,0.00,VWS V14.00,2013-04-06 03:14:00,
2013-04-05 23:16:00,30.7,4.4,29.18,NW,324,0.0,0.0,32,0.00,,BKN250,0.00,VWS V14.00,2013-04-06 03:16:00,
2013-04-05 23:17:00,30.6,4.2,29.18,NNW,328,0.0,0.0,32,0.00,,BKN250,0.00,VWS V14.00,2013-04-06 03:17:00,
2013-04-05 23:18:00,30.6,4.2,29.18,NNW,328,0.0,0.0,32,0.00,,BKN250,0.00,VWS V14.00,2013-04-06 03:18:00,
2013-04-05 23:19:00,30.6,4.2,29.18,NNW,327,0.0,0.0,32,0.00,,BKN250,0.00,VWS V14.00,2013-04-06 03:19:00,
2013-04-05 23:21:00,30.6,4.2,29.18,NNW,328,0.0,0.0,32,0.00,,BKN250,0.00,VWS V14.00,2013-04-06 03:21:00,
2013-04-05 23:23:00,30.4,4.1,29.18,NW,326,0.0,0.0,32,0.00,,BKN250,0.00,VWS V14.00,2013-04-06 03:23:00,
2013-04-05 23:25:00,30.4,4.1,29.18,NW,326,0.0,0.0,32,0.00,,BKN250,0.00,VWS V14.00,2013-04-06 03:25:00,
2013-04-05 23:26:00,30.4,4.1,29.18,NNW,328,0.0,0.0,32,0.00,,BKN250,0.00,VWS V14.00,2013-04-06 03:26:00,
2013-04-05 23:28:00,30.4,4.1,29.18,NNW,327,0.0,0.0,32,0.00,,BKN250,0.00,VWS V14.00,2013-04-06 03:28:00,
2013-04-05 23:30:00,30.2,3.9,29.18,NNW,328,0.0,0.0,32,0.00,,BKN250,0.00,VWS V14.00,2013-04-06 03:30:00,
2013-04-05 23:31:00,30.2,3.9,29.18,NW,326,0.0,0.0,32,0.00,,BKN250,0.00,VWS V14.00,2013-04-06 03:31:00,
2013-04-05 23:33:00,30.2,3.9,29.18,NNW,328,0.0,0.0,32,0.00,,BKN250,0.00,VWS V14.00,2013-04-06 03:33:00,
2013-04-05 23:35:00,30.0,4.4,29.18,NNW,327,0.0,0.0,33,0.00,,BKN250,0.00,VWS V14.00,2013-04-06 03:35:00,
2013-04-05 23:37:00,30.0,4.4,29.18,NW,326,0.0,0.0,33,0.00,,BKN250,0.00,VWS V14.00,2013-04-06 03:37:00,
2013-04-05 23:38:00,29.8,4.2,29.18,NNW,327,0.0,0.0,33,0.00,,BKN250,0.00,VWS V14.00,2013-04-06 03:38:00,
2013-04-05 23:40:00,29.8,4.2,29.18,NNW,327,0.0,0.0,33,0.00,,BKN250,0.00,VWS V14.00,2013-04-06 03:40:00,
2013-04-05 23:42:00,29.8,4.2,29.18,NNW,327,0.0,0.0,33,0.00,,BKN250,0.00,VWS V14.00,2013-04-06 03:42:00,
2013-04-05 23:43:00,29.7,4.1,29.18,NNW,328,0.0,0.0,33,0.00,,BKN250,0.00,VWS V14.00,2013-04-06 03:43:00,
2013-04-05 23:46:00,29.5,3.9,29.18,NNW,327,0.0,0.0,33,0.00,,BKN250,0.00,VWS V14.00,2013-04-06 03:46:00,
2013-04-05 23:47:00,29.5,3.9,29.18,NNW,327,0.0,0.0,33,0.00,,BKN250,0.00,VWS V14.00,2013-04-06 03:47:00,
2013-04-05 23:48:00,29.5,3.9,29.18,NNW,329,0.0,0.0,33,0.00,,BKN250,0.00,VWS V14.00,2013-04-06 03:48:00,
2013-04-05 23:49:00,29.5,3.9,29.18,NNW,329,0.0,0.0,33,0.00,,BKN250,0.00,VWS V14.00,2013-04-06 03:49:00,
2013-04-05 23:51:00,29.5,3.9,29.18,WNW,287,0.0,0.0,33,0.00,,BKN250,0.00,VWS V14.00,2013-04-06 03:51:00,
2013-04-05 23:52:00,29.5,3.9,29.18,WNW,287,0.0,0.0,33,0.00,,BKN250,0.00,VWS V14.00,2013-04-06 03:52:00,
2013-04-05 23:54:00,29.3,3.8,29.18,WNW,287,0.0,0.0,33,0.00,,BKN250,0.00,VWS V14.00,2013-04-06 03:54:00,
2013-04-05 23:55:00,29.3,3.8,29.18,WNW,287,0.0,0.0,33,0.00,,BKN250,0.00,VWS V14.00,2013-04-06 03:55:00,
2013-04-05 23:56:00,29.3,3.8,29.18,WNW,288,0.0,0.0,33,0.00,,BKN250,0.00,VWS V14.00,2013-04-06 03:56:00,
2013-04-05 23:57:00,29.3,4.4,29.18,NW,311,0.0,0.0,34,0.00,,SCT250,0.00,VWS V14.00,2013-04-06 03:57:00,
2013-04-05 23:59:00,29.3,4.4,29.18,NW,310,0.0,0.0,34,0.00,,SCT250,0.00,VWS V14.00,2013-04-06 03:59:00,